PWSweather.com
Personal Weather Stations
Station Observations
2450ARBOR
Round Rock, TX 78681

Round Rock, TX 78681

Lat: 30.535239, Lon: -97.728137

Elevation: 800

Station Type:

High Low Average
Temperature 78.8°F26.0°C 68.9°F20.5°C 72.4°F22.4°C
Dew Point 72.0°F22.2°C 65.0°F18.3°C 68.2°F20.1°C
Winds 7.0 mph 11.3 kmh Calm Calm 2.0 mph SE3.2 kmh SE
Wind Gusts 10.0 mph16.1 kmh -- 3.0 mph4.8 kmh
Humidity 94% 81% 87%
Pressure 30.00 in1015.9 mb 29.92 in1013.2 mb -
Precipitation 0.00 in0.0 mm - -
Hour Temp Dew Point Humidity Winds Wind Gusts Pressure Precip Precip Rate Daily Precip Total
12:01 AM 69.1°F20.6°C 65.0°F18.3°C 87% Calm Calm 1.0 mph1.6 kmh 29.99 in1015.6 mb 0.00 in0.0 mm 0.00 in0.0 mm 0.00 in0.0 mm
12:06 AM 69.1°F20.6°C 65.0°F18.3°C 87% 1.0 mph E1.6 kmh E 3.0 mph4.8 kmh 29.99 in1015.6 mb 0.00 in0.0 mm 0.00 in0.0 mm 0.00 in0.0 mm
12:08 AM 69.3°F20.7°C 65.0°F18.3°C 87% Calm Calm 3.0 mph4.8 kmh 29.99 in1015.6 mb 0.00 in0.0 mm 0.00 in0.0 mm 0.00 in0.0 mm
12:12 AM 69.3°F20.7°C 65.0°F18.3°C 87% 2.0 mph S3.2 kmh S 4.0 mph6.4 kmh 29.99 in1015.6 mb 0.00 in0.0 mm 0.00 in0.0 mm 0.00 in0.0 mm
12:14 AM 69.3°F20.7°C 65.0°F18.3°C 87% 2.0 mph SE3.2 kmh SE 4.0 mph6.4 kmh 29.99 in1015.6 mb 0.00 in0.0 mm 0.00 in0.0 mm 0.00 in0.0 mm
12:18 AM 69.3°F20.7°C 65.0°F18.3°C 87% Calm Calm 2.0 mph3.2 kmh 29.99 in1015.6 mb 0.00 in0.0 mm 0.00 in0.0 mm 0.00 in0.0 mm
12:22 AM 69.3°F20.7°C 65.0°F18.3°C 87% 3.0 mph NNE4.8 kmh NNE 4.0 mph6.4 kmh 29.99 in1015.6 mb 0.00 in0.0 mm 0.00 in0.0 mm 0.00 in0.0 mm
12:24 AM 69.3°F20.7°C 65.0°F18.3°C 87% 2.0 mph S3.2 kmh S 4.0 mph6.4 kmh 29.99 in1015.6 mb 0.00 in0.0 mm 0.00 in0.0 mm 0.00 in0.0 mm
12:28 AM 69.3°F20.7°C 65.0°F18.3°C 87% 2.0 mph W3.2 kmh W 3.0 mph4.8 kmh 29.99 in1015.6 mb 0.00 in0.0 mm 0.00 in0.0 mm 0.00 in0.0 mm
12:32 AM 69.3°F20.7°C 65.0°F18.3°C 87% Calm Calm 2.0 mph3.2 kmh 29.99 in1015.6 mb 0.00 in0.0 mm 0.00 in0.0 mm 0.00 in0.0 mm
12:38 AM 69.3°F20.7°C 65.0°F18.3°C 87% 4.0 mph SW6.4 kmh SW 4.0 mph6.4 kmh 29.99 in1015.6 mb 0.00 in0.0 mm 0.00 in0.0 mm 0.00 in0.0 mm
12:42 AM 69.4°F20.8°C 65.0°F18.3°C 87% 1.0 mph NNW1.6 kmh NNW 3.0 mph4.8 kmh 29.99 in1015.6 mb 0.00 in0.0 mm 0.00 in0.0 mm 0.00 in0.0 mm
12:44 AM 69.4°F20.8°C 65.0°F18.3°C 87% Calm Calm 3.0 mph4.8 kmh 29.99 in1015.6 mb 0.00 in0.0 mm 0.00 in0.0 mm 0.00 in0.0 mm
12:46 AM 69.4°F20.8°C 65.0°F18.3°C 87% 1.0 mph SE1.6 kmh SE 2.0 mph3.2 kmh 29.99 in1015.6 mb 0.00 in0.0 mm 0.00 in0.0 mm 0.00 in0.0 mm
12:50 AM 69.4°F20.8°C 65.0°F18.3°C 87% 2.0 mph SE3.2 kmh SE 2.0 mph3.2 kmh 29.99 in1015.6 mb 0.00 in0.0 mm 0.00 in0.0 mm 0.00 in0.0 mm
12:52 AM 69.4°F20.8°C 65.0°F18.3°C 87% Calm Calm 2.0 mph3.2 kmh 29.99 in1015.6 mb 0.00 in0.0 mm 0.00 in0.0 mm 0.00 in0.0 mm
12:56 AM 69.4°F20.8°C 65.0°F18.3°C 87% Calm Calm 1.0 mph1.6 kmh 29.99 in1015.6 mb 0.00 in0.0 mm 0.00 in0.0 mm 0.00 in0.0 mm
12:58 AM 69.4°F20.8°C 65.0°F18.3°C 87% Calm Calm 1.0 mph1.6 kmh 29.99 in1015.6 mb 0.00 in0.0 mm 0.00 in0.0 mm 0.00 in0.0 mm
01:01 AM 69.4°F20.8°C 65.0°F18.3°C 87% 1.0 mph 1.6 kmh 2.0 mph3.2 kmh 29.99 in1015.6 mb 0.00 in0.0 mm 0.00 in0.0 mm 0.00 in0.0 mm
01:06 AM 69.4°F20.8°C 65.0°F18.3°C 87% Calm Calm 1.0 mph1.6 kmh 29.99 in1015.6 mb 0.00 in0.0 mm 0.00 in0.0 mm 0.00 in0.0 mm
01:08 AM 69.4°F20.8°C 65.0°F18.3°C 87% 1.0 mph SSE1.6 kmh SSE 2.0 mph3.2 kmh 29.99 in1015.6 mb 0.00 in0.0 mm 0.00 in0.0 mm 0.00 in0.0 mm
01:14 AM 69.4°F20.8°C 65.0°F18.3°C 87% 1.0 mph S1.6 kmh S 4.0 mph6.4 kmh 29.99 in1015.6 mb 0.00 in0.0 mm 0.00 in0.0 mm 0.00 in0.0 mm
01:16 AM 69.4°F20.8°C 65.0°F18.3°C 87% Calm Calm 2.0 mph3.2 kmh 29.98 in1015.2 mb 0.00 in0.0 mm 0.00 in0.0 mm 0.00 in0.0 mm
01:21 AM 69.3°F20.7°C 65.0°F18.3°C 87% Calm Calm -- 29.98 in1015.2 mb 0.00 in0.0 mm 0.00 in0.0 mm 0.00 in0.0 mm
01:22 AM 69.3°F20.7°C 65.0°F18.3°C 87% Calm Calm -- 29.98 in1015.2 mb 0.00 in0.0 mm 0.00 in0.0 mm 0.00 in0.0 mm
01:26 AM 69.3°F20.7°C 65.0°F18.3°C 87% 1.0 mph E1.6 kmh E 2.0 mph3.2 kmh 29.98 in1015.2 mb 0.00 in0.0 mm 0.00 in0.0 mm 0.00 in0.0 mm
01:28 AM 69.3°F20.7°C 65.0°F18.3°C 87% 2.0 mph NNE3.2 kmh NNE 2.0 mph3.2 kmh 29.98 in1015.2 mb 0.00 in0.0 mm 0.00 in0.0 mm 0.00 in0.0 mm
01:32 AM 69.3°F20.7°C 65.0°F18.3°C 87% 2.0 mph S3.2 kmh S 2.0 mph3.2 kmh 29.98 in1015.2 mb 0.00 in0.0 mm 0.00 in0.0 mm 0.00 in0.0 mm
01:38 AM 69.3°F20.7°C 65.0°F18.3°C 87% Calm Calm 5.0 mph8.0 kmh 29.99 in1015.6 mb 0.00 in0.0 mm 0.00 in0.0 mm 0.00 in0.0 mm
01:40 AM 69.3°F20.7°C 65.0°F18.3°C 87% Calm Calm -- 29.99 in1015.6 mb 0.00 in0.0 mm 0.00 in0.0 mm 0.00 in0.0 mm
01:46 AM 69.3°F20.7°C 65.0°F18.3°C 87% 1.0 mph S1.6 kmh S 2.0 mph3.2 kmh 29.99 in1015.6 mb 0.00 in0.0 mm 0.00 in0.0 mm 0.00 in0.0 mm
01:48 AM 69.3°F20.7°C 65.0°F18.3°C 87% 1.0 mph SSE1.6 kmh SSE 3.0 mph4.8 kmh 29.99 in1015.6 mb 0.00 in0.0 mm 0.00 in0.0 mm 0.00 in0.0 mm
01:52 AM 69.3°F20.7°C 65.0°F18.3°C 87% Calm Calm 2.0 mph3.2 kmh 29.99 in1015.6 mb 0.00 in0.0 mm 0.00 in0.0 mm 0.00 in0.0 mm
01:58 AM 69.3°F20.7°C 65.0°F18.3°C 87% 3.0 mph SSW4.8 kmh SSW 4.0 mph6.4 kmh 29.99 in1015.6 mb 0.00 in0.0 mm 0.00 in0.0 mm 0.00 in0.0 mm
02:01 AM 69.3°F20.7°C 65.0°F18.3°C 87% 2.0 mph SSW3.2 kmh SSW 2.0 mph3.2 kmh 29.97 in1014.9 mb 0.00 in0.0 mm 0.00 in0.0 mm 0.00 in0.0 mm
02:06 AM 69.4°F20.8°C 65.0°F18.3°C 87% Calm Calm 3.0 mph4.8 kmh 29.97 in1014.9 mb 0.00 in0.0 mm 0.00 in0.0 mm 0.00 in0.0 mm
02:08 AM 69.4°F20.8°C 65.0°F18.3°C 87% 2.0 mph ESE3.2 kmh ESE 3.0 mph4.8 kmh 29.97 in1014.9 mb 0.00 in0.0 mm 0.00 in0.0 mm 0.00 in0.0 mm
02:12 AM 69.4°F20.8°C 65.0°F18.3°C 87% Calm Calm 3.0 mph4.8 kmh 29.97 in1014.9 mb 0.00 in0.0 mm 0.00 in0.0 mm 0.00 in0.0 mm
02:14 AM 69.4°F20.8°C 65.0°F18.3°C 87% 3.0 mph SSW4.8 kmh SSW 3.0 mph4.8 kmh 29.97 in1014.9 mb 0.00 in0.0 mm 0.00 in0.0 mm 0.00 in0.0 mm
02:18 AM 69.6°F20.9°C 66.0°F18.9°C 87% 2.0 mph SSE3.2 kmh SSE 4.0 mph6.4 kmh 29.97 in1014.9 mb 0.00 in0.0 mm 0.00 in0.0 mm 0.00 in0.0 mm
02:24 AM 69.6°F20.9°C 65.0°F18.3°C 86% 4.0 mph SSE6.4 kmh SSE 4.0 mph6.4 kmh 29.97 in1014.9 mb 0.00 in0.0 mm 0.00 in0.0 mm 0.00 in0.0 mm
02:31 AM 69.6°F20.9°C 65.0°F18.3°C 86% 2.0 mph S3.2 kmh S 4.0 mph6.4 kmh 29.97 in1014.9 mb 0.00 in0.0 mm 0.00 in0.0 mm 0.00 in0.0 mm
02:32 AM 69.6°F20.9°C 65.0°F18.3°C 86% Calm Calm 4.0 mph6.4 kmh 29.97 in1014.9 mb 0.00 in0.0 mm 0.00 in0.0 mm 0.00 in0.0 mm
02:36 AM 69.6°F20.9°C 65.0°F18.3°C 86% 3.0 mph ENE4.8 kmh ENE 3.0 mph4.8 kmh 29.97 in1014.9 mb 0.00 in0.0 mm 0.00 in0.0 mm 0.00 in0.0 mm
02:41 AM 69.6°F20.9°C 65.0°F18.3°C 86% 1.0 mph SSW1.6 kmh SSW 3.0 mph4.8 kmh 29.97 in1014.9 mb 0.00 in0.0 mm 0.00 in0.0 mm 0.00 in0.0 mm
02:44 AM 69.6°F20.9°C 65.0°F18.3°C 86% 1.0 mph S1.6 kmh S 3.0 mph4.8 kmh 29.97 in1014.9 mb 0.00 in0.0 mm 0.00 in0.0 mm 0.00 in0.0 mm
02:48 AM 69.6°F20.9°C 65.0°F18.3°C 86% 1.0 mph ESE1.6 kmh ESE 3.0 mph4.8 kmh 29.97 in1014.9 mb 0.00 in0.0 mm 0.00 in0.0 mm 0.00 in0.0 mm
02:50 AM 69.6°F20.9°C 65.0°F18.3°C 86% 3.0 mph S4.8 kmh S 4.0 mph6.4 kmh 29.97 in1014.9 mb 0.00 in0.0 mm 0.00 in0.0 mm 0.00 in0.0 mm
02:56 AM 69.6°F20.9°C 65.0°F18.3°C 86% 1.0 mph E1.6 kmh E 2.0 mph3.2 kmh 29.97 in1014.9 mb 0.00 in0.0 mm 0.00 in0.0 mm 0.00 in0.0 mm
02:58 AM 69.6°F20.9°C 65.0°F18.3°C 86% 2.0 mph SSE3.2 kmh SSE 3.0 mph4.8 kmh 29.96 in1014.6 mb 0.00 in0.0 mm 0.00 in0.0 mm 0.00 in0.0 mm
03:04 AM 69.6°F20.9°C 65.0°F18.3°C 86% 1.0 mph ENE1.6 kmh ENE 2.0 mph3.2 kmh 29.96 in1014.6 mb 0.00 in0.0 mm 0.00 in0.0 mm 0.00 in0.0 mm
03:06 AM 69.6°F20.9°C 65.0°F18.3°C 86% 3.0 mph ESE4.8 kmh ESE 5.0 mph8.0 kmh 29.96 in1014.6 mb 0.00 in0.0 mm 0.00 in0.0 mm 0.00 in0.0 mm
03:08 AM 69.6°F20.9°C 65.0°F18.3°C 86% 3.0 mph S4.8 kmh S 5.0 mph8.0 kmh 29.96 in1014.6 mb 0.00 in0.0 mm 0.00 in0.0 mm 0.00 in0.0 mm
03:12 AM 69.6°F20.9°C 65.0°F18.3°C 86% 3.0 mph WNW4.8 kmh WNW 3.0 mph4.8 kmh 29.96 in1014.6 mb 0.00 in0.0 mm 0.00 in0.0 mm 0.00 in0.0 mm
03:14 AM 69.6°F20.9°C 65.0°F18.3°C 86% 1.0 mph S1.6 kmh S 3.0 mph4.8 kmh 29.96 in1014.6 mb 0.00 in0.0 mm 0.00 in0.0 mm 0.00 in0.0 mm
03:18 AM 69.6°F20.9°C 65.0°F18.3°C 86% 2.0 mph SSW3.2 kmh SSW 3.0 mph4.8 kmh 29.96 in1014.6 mb 0.00 in0.0 mm 0.00 in0.0 mm 0.00 in0.0 mm
03:20 AM 69.6°F20.9°C 65.0°F18.3°C 86% 1.0 mph SSE1.6 kmh SSE 2.0 mph3.2 kmh 29.96 in1014.6 mb 0.00 in0.0 mm 0.00 in0.0 mm 0.00 in0.0 mm
03:24 AM 69.6°F20.9°C 65.0°F18.3°C 86% 3.0 mph E4.8 kmh E 3.0 mph4.8 kmh 29.96 in1014.6 mb 0.00 in0.0 mm 0.00 in0.0 mm 0.00 in0.0 mm
03:26 AM 69.6°F20.9°C 65.0°F18.3°C 86% 1.0 mph SE1.6 kmh SE 3.0 mph4.8 kmh 29.96 in1014.6 mb 0.00 in0.0 mm 0.00 in0.0 mm 0.00 in0.0 mm
03:28 AM 69.6°F20.9°C 65.0°F18.3°C 86% 2.0 mph ESE3.2 kmh ESE 3.0 mph4.8 kmh 29.96 in1014.6 mb 0.00 in0.0 mm 0.00 in0.0 mm 0.00 in0.0 mm
03:31 AM 69.6°F20.9°C 65.0°F18.3°C 86% 2.0 mph S3.2 kmh S 2.0 mph3.2 kmh 29.96 in1014.6 mb 0.00 in0.0 mm 0.00 in0.0 mm 0.00 in0.0 mm
03:33 AM 69.6°F20.9°C 65.0°F18.3°C 86% Calm Calm 3.0 mph4.8 kmh 29.96 in1014.6 mb 0.00 in0.0 mm 0.00 in0.0 mm 0.00 in0.0 mm
03:37 AM 69.6°F20.9°C 65.0°F18.3°C 86% 3.0 mph E4.8 kmh E 3.0 mph4.8 kmh 29.96 in1014.6 mb 0.00 in0.0 mm 0.00 in0.0 mm 0.00 in0.0 mm
03:44 AM 69.6°F20.9°C 65.0°F18.3°C 86% 1.0 mph E1.6 kmh E 1.0 mph1.6 kmh 29.96 in1014.6 mb 0.00 in0.0 mm 0.00 in0.0 mm 0.00 in0.0 mm
03:48 AM 69.6°F20.9°C 65.0°F18.3°C 86% 1.0 mph W1.6 kmh W 4.0 mph6.4 kmh 29.96 in1014.6 mb 0.00 in0.0 mm 0.00 in0.0 mm 0.00 in0.0 mm
03:51 AM 69.6°F20.9°C 65.0°F18.3°C 86% 3.0 mph E4.8 kmh E 4.0 mph6.4 kmh 29.96 in1014.6 mb 0.00 in0.0 mm 0.00 in0.0 mm 0.00 in0.0 mm
03:52 AM 69.6°F20.9°C 65.0°F18.3°C 86% 2.0 mph SSE3.2 kmh SSE 5.0 mph8.0 kmh 29.96 in1014.6 mb 0.00 in0.0 mm 0.00 in0.0 mm 0.00 in0.0 mm
03:56 AM 69.6°F20.9°C 65.0°F18.3°C 86% 2.0 mph SSE3.2 kmh SSE 3.0 mph4.8 kmh 29.96 in1014.6 mb 0.00 in0.0 mm 0.00 in0.0 mm 0.00 in0.0 mm
03:58 AM 69.6°F20.9°C 65.0°F18.3°C 86% Calm Calm 3.0 mph4.8 kmh 29.95 in1014.2 mb 0.00 in0.0 mm 0.00 in0.0 mm 0.00 in0.0 mm
04:02 AM 69.6°F20.9°C 65.0°F18.3°C 86% 1.0 mph SSE1.6 kmh SSE 2.0 mph3.2 kmh 29.95 in1014.2 mb 0.00 in0.0 mm 0.00 in0.0 mm 0.00 in0.0 mm
04:06 AM 69.6°F20.9°C 65.0°F18.3°C 86% Calm Calm 1.0 mph1.6 kmh 29.95 in1014.2 mb 0.00 in0.0 mm 0.00 in0.0 mm 0.00 in0.0 mm
04:08 AM 69.6°F20.9°C 65.0°F18.3°C 86% 4.0 mph S6.4 kmh S 4.0 mph6.4 kmh 29.95 in1014.2 mb 0.00 in0.0 mm 0.00 in0.0 mm 0.00 in0.0 mm
04:12 AM 69.6°F20.9°C 65.0°F18.3°C 86% 2.0 mph S3.2 kmh S 3.0 mph4.8 kmh 29.95 in1014.2 mb 0.00 in0.0 mm 0.00 in0.0 mm 0.00 in0.0 mm
04:14 AM 69.6°F20.9°C 65.0°F18.3°C 86% 1.0 mph SSE1.6 kmh SSE 3.0 mph4.8 kmh 29.95 in1014.2 mb 0.00 in0.0 mm 0.00 in0.0 mm 0.00 in0.0 mm
04:18 AM 69.6°F20.9°C 65.0°F18.3°C 86% Calm Calm 2.0 mph3.2 kmh 29.95 in1014.2 mb 0.00 in0.0 mm 0.00 in0.0 mm 0.00 in0.0 mm
04:22 AM 69.6°F20.9°C 65.0°F18.3°C 86% 1.0 mph SSE1.6 kmh SSE 4.0 mph6.4 kmh 29.95 in1014.2 mb 0.00 in0.0 mm 0.00 in0.0 mm 0.00 in0.0 mm
04:28 AM 69.6°F20.9°C 65.0°F18.3°C 86% 2.0 mph S3.2 kmh S 3.0 mph4.8 kmh 29.95 in1014.2 mb 0.00 in0.0 mm 0.00 in0.0 mm 0.00 in0.0 mm
04:31 AM 69.6°F20.9°C 65.0°F18.3°C 86% 2.0 mph ESE3.2 kmh ESE 3.0 mph4.8 kmh 29.95 in1014.2 mb 0.00 in0.0 mm 0.00 in0.0 mm 0.00 in0.0 mm
04:34 AM 69.6°F20.9°C 65.0°F18.3°C 86% 4.0 mph NNE6.4 kmh NNE 5.0 mph8.0 kmh 29.95 in1014.2 mb 0.00 in0.0 mm 0.00 in0.0 mm 0.00 in0.0 mm
04:36 AM 69.6°F20.9°C 65.0°F18.3°C 86% 2.0 mph SSE3.2 kmh SSE 4.0 mph6.4 kmh 29.95 in1014.2 mb 0.00 in0.0 mm 0.00 in0.0 mm 0.00 in0.0 mm
04:40 AM 69.4°F20.8°C 65.0°F18.3°C 86% 2.0 mph S3.2 kmh S 3.0 mph4.8 kmh 29.95 in1014.2 mb 0.00 in0.0 mm 0.00 in0.0 mm 0.00 in0.0 mm
04:46 AM 69.4°F20.8°C 65.0°F18.3°C 86% 1.0 mph ESE1.6 kmh ESE 3.0 mph4.8 kmh 29.95 in1014.2 mb 0.00 in0.0 mm 0.00 in0.0 mm 0.00 in0.0 mm
04:48 AM 69.4°F20.8°C 65.0°F18.3°C 86% 1.0 mph SSW1.6 kmh SSW 3.0 mph4.8 kmh 29.95 in1014.2 mb 0.00 in0.0 mm 0.00 in0.0 mm 0.00 in0.0 mm
04:52 AM 69.4°F20.8°C 65.0°F18.3°C 86% 2.0 mph W3.2 kmh W 3.0 mph4.8 kmh 29.95 in1014.2 mb 0.00 in0.0 mm 0.00 in0.0 mm 0.00 in0.0 mm
04:58 AM 69.4°F20.8°C 65.0°F18.3°C 86% 3.0 mph S4.8 kmh S 3.0 mph4.8 kmh 29.93 in1013.5 mb 0.00 in0.0 mm 0.00 in0.0 mm 0.00 in0.0 mm
05:04 AM 69.4°F20.8°C 65.0°F18.3°C 86% Calm Calm 4.0 mph6.4 kmh 29.93 in1013.5 mb 0.00 in0.0 mm 0.00 in0.0 mm 0.00 in0.0 mm
05:08 AM 69.4°F20.8°C 65.0°F18.3°C 86% 2.0 mph ESE3.2 kmh ESE 3.0 mph4.8 kmh 29.93 in1013.5 mb 0.00 in0.0 mm 0.00 in0.0 mm 0.00 in0.0 mm
05:10 AM 69.4°F20.8°C 65.0°F18.3°C 86% 1.0 mph SE1.6 kmh SE 1.0 mph1.6 kmh 29.93 in1013.5 mb 0.00 in0.0 mm 0.00 in0.0 mm 0.00 in0.0 mm
05:12 AM 69.4°F20.8°C 65.0°F18.3°C 86% 1.0 mph SSE1.6 kmh SSE 1.0 mph1.6 kmh 29.93 in1013.5 mb 0.00 in0.0 mm 0.00 in0.0 mm 0.00 in0.0 mm
05:16 AM 69.4°F20.8°C 65.0°F18.3°C 86% Calm Calm 2.0 mph3.2 kmh 29.93 in1013.5 mb 0.00 in0.0 mm 0.00 in0.0 mm 0.00 in0.0 mm
05:18 AM 69.4°F20.8°C 65.0°F18.3°C 86% 1.0 mph SSE1.6 kmh SSE 3.0 mph4.8 kmh 29.93 in1013.5 mb 0.00 in0.0 mm 0.00 in0.0 mm 0.00 in0.0 mm
05:22 AM 69.4°F20.8°C 65.0°F18.3°C 86% 3.0 mph SE4.8 kmh SE 4.0 mph6.4 kmh 29.93 in1013.5 mb 0.00 in0.0 mm 0.00 in0.0 mm 0.00 in0.0 mm
05:24 AM 69.4°F20.8°C 65.0°F18.3°C 86% 2.0 mph S3.2 kmh S 3.0 mph4.8 kmh 29.93 in1013.5 mb 0.00 in0.0 mm 0.00 in0.0 mm 0.00 in0.0 mm
05:28 AM 69.4°F20.8°C 65.0°F18.3°C 86% 3.0 mph SSE4.8 kmh SSE 3.0 mph4.8 kmh 29.93 in1013.5 mb 0.00 in0.0 mm 0.00 in0.0 mm 0.00 in0.0 mm
05:31 AM 69.4°F20.8°C 65.0°F18.3°C 86% 2.0 mph SSW3.2 kmh SSW 3.0 mph4.8 kmh 29.93 in1013.5 mb 0.00 in0.0 mm 0.00 in0.0 mm 0.00 in0.0 mm
05:32 AM 69.4°F20.8°C 65.0°F18.3°C 86% 1.0 mph SSE1.6 kmh SSE 3.0 mph4.8 kmh 29.93 in1013.5 mb 0.00 in0.0 mm 0.00 in0.0 mm 0.00 in0.0 mm
05:36 AM 69.4°F20.8°C 65.0°F18.3°C 86% 3.0 mph SSW4.8 kmh SSW 5.0 mph8.0 kmh 29.93 in1013.5 mb 0.00 in0.0 mm 0.00 in0.0 mm 0.00 in0.0 mm
05:38 AM 69.4°F20.8°C 65.0°F18.3°C 86% 3.0 mph ENE4.8 kmh ENE 3.0 mph4.8 kmh 29.93 in1013.5 mb 0.00 in0.0 mm 0.00 in0.0 mm 0.00 in0.0 mm
05:40 AM 69.4°F20.8°C 65.0°F18.3°C 86% 3.0 mph SE4.8 kmh SE 3.0 mph4.8 kmh 29.93 in1013.5 mb 0.00 in0.0 mm 0.00 in0.0 mm 0.00 in0.0 mm
05:46 AM 69.4°F20.8°C 65.0°F18.3°C 87% 3.0 mph S4.8 kmh S 6.0 mph9.7 kmh 29.93 in1013.5 mb 0.00 in0.0 mm 0.00 in0.0 mm 0.00 in0.0 mm
05:50 AM 69.4°F20.8°C 65.0°F18.3°C 87% 1.0 mph ESE1.6 kmh ESE 2.0 mph3.2 kmh 29.93 in1013.5 mb 0.00 in0.0 mm 0.00 in0.0 mm 0.00 in0.0 mm
05:52 AM 69.4°F20.8°C 65.0°F18.3°C 87% Calm Calm 2.0 mph3.2 kmh 29.93 in1013.5 mb 0.00 in0.0 mm 0.00 in0.0 mm 0.00 in0.0 mm
05:56 AM 69.4°F20.8°C 65.0°F18.3°C 87% Calm Calm 1.0 mph1.6 kmh 29.93 in1013.5 mb 0.00 in0.0 mm 0.00 in0.0 mm 0.00 in0.0 mm
05:58 AM 69.4°F20.8°C 65.0°F18.3°C 87% 1.0 mph ESE1.6 kmh ESE 1.0 mph1.6 kmh 29.93 in1013.5 mb 0.00 in0.0 mm 0.00 in0.0 mm 0.00 in0.0 mm
06:04 AM 69.4°F20.8°C 65.0°F18.3°C 87% 1.0 mph ESE1.6 kmh ESE 2.0 mph3.2 kmh 29.93 in1013.5 mb 0.00 in0.0 mm 0.00 in0.0 mm 0.00 in0.0 mm
06:06 AM 69.4°F20.8°C 65.0°F18.3°C 87% 1.0 mph SE1.6 kmh SE 2.0 mph3.2 kmh 29.93 in1013.5 mb 0.00 in0.0 mm 0.00 in0.0 mm 0.00 in0.0 mm
06:10 AM 69.4°F20.8°C 65.0°F18.3°C 87% Calm Calm 2.0 mph3.2 kmh 29.93 in1013.5 mb 0.00 in0.0 mm 0.00 in0.0 mm 0.00 in0.0 mm
06:12 AM 69.4°F20.8°C 65.0°F18.3°C 87% 2.0 mph S3.2 kmh S 2.0 mph3.2 kmh 29.93 in1013.5 mb 0.00 in0.0 mm 0.00 in0.0 mm 0.00 in0.0 mm
06:16 AM 69.4°F20.8°C 65.0°F18.3°C 87% 2.0 mph S3.2 kmh S 4.0 mph6.4 kmh 29.93 in1013.5 mb 0.00 in0.0 mm 0.00 in0.0 mm 0.00 in0.0 mm
06:18 AM 69.4°F20.8°C 65.0°F18.3°C 87% 2.0 mph SSE3.2 kmh SSE 2.0 mph3.2 kmh 29.93 in1013.5 mb 0.00 in0.0 mm 0.00 in0.0 mm 0.00 in0.0 mm
06:22 AM 69.4°F20.8°C 65.0°F18.3°C 87% 2.0 mph E3.2 kmh E 4.0 mph6.4 kmh 29.93 in1013.5 mb 0.00 in0.0 mm 0.00 in0.0 mm 0.00 in0.0 mm
06:24 AM 69.4°F20.8°C 65.0°F18.3°C 87% 2.0 mph ESE3.2 kmh ESE 3.0 mph4.8 kmh 29.93 in1013.5 mb 0.00 in0.0 mm 0.00 in0.0 mm 0.00 in0.0 mm
06:28 AM 69.4°F20.8°C 65.0°F18.3°C 87% 1.0 mph SE1.6 kmh SE 2.0 mph3.2 kmh 29.93 in1013.5 mb 0.00 in0.0 mm 0.00 in0.0 mm 0.00 in0.0 mm
06:31 AM 69.4°F20.8°C 66.0°F18.9°C 88% 3.0 mph NE4.8 kmh NE 3.0 mph4.8 kmh 29.93 in1013.5 mb 0.00 in0.0 mm 0.00 in0.0 mm 0.00 in0.0 mm
06:36 AM 69.3°F20.7°C 66.0°F18.9°C 88% 2.0 mph 3.2 kmh 3.0 mph4.8 kmh 29.93 in1013.5 mb 0.00 in0.0 mm 0.00 in0.0 mm 0.00 in0.0 mm
06:38 AM 69.3°F20.7°C 66.0°F18.9°C 88% Calm Calm 1.0 mph1.6 kmh 29.93 in1013.5 mb 0.00 in0.0 mm 0.00 in0.0 mm 0.00 in0.0 mm
06:42 AM 69.3°F20.7°C 66.0°F18.9°C 88% Calm Calm 2.0 mph3.2 kmh 29.93 in1013.5 mb 0.00 in0.0 mm 0.00 in0.0 mm 0.00 in0.0 mm
06:46 AM 69.3°F20.7°C 66.0°F18.9°C 88% 1.0 mph ESE1.6 kmh ESE 4.0 mph6.4 kmh 29.93 in1013.5 mb 0.00 in0.0 mm 0.00 in0.0 mm 0.00 in0.0 mm
06:48 AM 69.3°F20.7°C 66.0°F18.9°C 88% Calm Calm -- 29.93 in1013.5 mb 0.00 in0.0 mm 0.00 in0.0 mm 0.00 in0.0 mm
06:52 AM 69.3°F20.7°C 66.0°F18.9°C 88% 2.0 mph S3.2 kmh S 3.0 mph4.8 kmh 29.93 in1013.5 mb 0.00 in0.0 mm 0.00 in0.0 mm 0.00 in0.0 mm
06:58 AM 69.3°F20.7°C 66.0°F18.9°C 88% 1.0 mph SE1.6 kmh SE 2.0 mph3.2 kmh 29.94 in1013.9 mb 0.00 in0.0 mm 0.00 in0.0 mm 0.00 in0.0 mm
07:02 AM 69.3°F20.7°C 66.0°F18.9°C 88% Calm Calm 2.0 mph3.2 kmh 29.94 in1013.9 mb 0.00 in0.0 mm 0.00 in0.0 mm 0.00 in0.0 mm
07:08 AM 69.3°F20.7°C 66.0°F18.9°C 88% 1.0 mph E1.6 kmh E 4.0 mph6.4 kmh 29.94 in1013.9 mb 0.00 in0.0 mm 0.00 in0.0 mm 0.00 in0.0 mm
07:12 AM 69.3°F20.7°C 66.0°F18.9°C 88% 4.0 mph SE6.4 kmh SE 4.0 mph6.4 kmh 29.94 in1013.9 mb 0.00 in0.0 mm 0.00 in0.0 mm 0.00 in0.0 mm
07:14 AM 69.3°F20.7°C 66.0°F18.9°C 88% 1.0 mph E1.6 kmh E 5.0 mph8.0 kmh 29.94 in1013.9 mb 0.00 in0.0 mm 0.00 in0.0 mm 0.00 in0.0 mm
07:16 AM 69.3°F20.7°C 66.0°F18.9°C 88% 1.0 mph ESE1.6 kmh ESE 5.0 mph8.0 kmh 29.94 in1013.9 mb 0.00 in0.0 mm 0.00 in0.0 mm 0.00 in0.0 mm
07:20 AM 69.3°F20.7°C 66.0°F18.9°C 88% 1.0 mph SSE1.6 kmh SSE 1.0 mph1.6 kmh 29.94 in1013.9 mb 0.00 in0.0 mm 0.00 in0.0 mm 0.00 in0.0 mm
07:24 AM 69.3°F20.7°C 66.0°F18.9°C 88% Calm Calm 4.0 mph6.4 kmh 29.94 in1013.9 mb 0.00 in0.0 mm 0.00 in0.0 mm 0.00 in0.0 mm
07:28 AM 69.3°F20.7°C 66.0°F18.9°C 88% 1.0 mph E1.6 kmh E 3.0 mph4.8 kmh 29.94 in1013.9 mb 0.00 in0.0 mm 0.00 in0.0 mm 0.00 in0.0 mm
07:32 AM 69.3°F20.7°C 66.0°F18.9°C 88% 5.0 mph 8.0 kmh 5.0 mph8.0 kmh 29.94 in1013.9 mb 0.00 in0.0 mm 0.00 in0.0 mm 0.00 in0.0 mm
07:38 AM 69.3°F20.7°C 66.0°F18.9°C 88% 1.0 mph NE1.6 kmh NE 2.0 mph3.2 kmh 29.94 in1013.9 mb 0.00 in0.0 mm 0.00 in0.0 mm 0.00 in0.0 mm
07:42 AM 69.3°F20.7°C 66.0°F18.9°C 88% 2.0 mph NE3.2 kmh NE 2.0 mph3.2 kmh 29.94 in1013.9 mb 0.00 in0.0 mm 0.00 in0.0 mm 0.00 in0.0 mm
07:44 AM 69.3°F20.7°C 66.0°F18.9°C 88% Calm Calm 3.0 mph4.8 kmh 29.97 in1014.9 mb 0.00 in0.0 mm 0.00 in0.0 mm 0.00 in0.0 mm
07:46 AM 69.3°F20.7°C 66.0°F18.9°C 88% 4.0 mph ENE6.4 kmh ENE 4.0 mph6.4 kmh 29.97 in1014.9 mb 0.00 in0.0 mm 0.00 in0.0 mm 0.00 in0.0 mm
07:48 AM 69.3°F20.7°C 66.0°F18.9°C 88% 1.0 mph SW1.6 kmh SW 1.0 mph1.6 kmh 29.97 in1014.9 mb 0.00 in0.0 mm 0.00 in0.0 mm 0.00 in0.0 mm
07:51 AM 69.3°F20.7°C 66.0°F18.9°C 89% Calm Calm 3.0 mph4.8 kmh 29.97 in1014.9 mb 0.00 in0.0 mm 0.00 in0.0 mm 0.00 in0.0 mm
07:52 AM 69.3°F20.7°C 66.0°F18.9°C 89% 2.0 mph NE3.2 kmh NE 2.0 mph3.2 kmh 29.97 in1014.9 mb 0.00 in0.0 mm 0.00 in0.0 mm 0.00 in0.0 mm
07:54 AM 69.3°F20.7°C 66.0°F18.9°C 89% 1.0 mph SSE1.6 kmh SSE 3.0 mph4.8 kmh 29.97 in1014.9 mb 0.00 in0.0 mm 0.00 in0.0 mm 0.00 in0.0 mm
07:58 AM 69.3°F20.7°C 66.0°F18.9°C 89% Calm Calm 1.0 mph1.6 kmh 29.96 in1014.6 mb 0.00 in0.0 mm 0.00 in0.0 mm 0.00 in0.0 mm
08:01 AM 69.3°F20.7°C 66.0°F18.9°C 89% Calm Calm 2.0 mph3.2 kmh 29.96 in1014.6 mb 0.00 in0.0 mm 0.00 in0.0 mm 0.00 in0.0 mm
08:04 AM 69.3°F20.7°C 66.0°F18.9°C 90% 1.0 mph SSE1.6 kmh SSE 2.0 mph3.2 kmh 29.96 in1014.6 mb 0.00 in0.0 mm 0.00 in0.0 mm 0.00 in0.0 mm
08:06 AM 69.3°F20.7°C 66.0°F18.9°C 90% 2.0 mph NNE3.2 kmh NNE 2.0 mph3.2 kmh 29.96 in1014.6 mb 0.00 in0.0 mm 0.00 in0.0 mm 0.00 in0.0 mm
08:08 AM 69.3°F20.7°C 66.0°F18.9°C 90% Calm Calm 1.0 mph1.6 kmh 29.96 in1014.6 mb 0.00 in0.0 mm 0.00 in0.0 mm 0.00 in0.0 mm
08:11 AM 69.1°F20.6°C 66.0°F18.9°C 90% Calm Calm 1.0 mph1.6 kmh 29.96 in1014.6 mb 0.00 in0.0 mm 0.00 in0.0 mm 0.00 in0.0 mm
08:14 AM 69.1°F20.6°C 66.0°F18.9°C 91% Calm Calm -- 29.96 in1014.6 mb 0.00 in0.0 mm 0.00 in0.0 mm 0.00 in0.0 mm
08:16 AM 69.1°F20.6°C 66.0°F18.9°C 91% Calm Calm -- 29.96 in1014.6 mb 0.00 in0.0 mm 0.00 in0.0 mm 0.00 in0.0 mm
08:22 AM 68.9°F20.5°C 66.0°F18.9°C 91% Calm Calm -- 29.96 in1014.6 mb 0.00 in0.0 mm 0.00 in0.0 mm 0.00 in0.0 mm
08:24 AM 68.9°F20.5°C 66.0°F18.9°C 91% Calm Calm -- 29.96 in1014.6 mb 0.00 in0.0 mm 0.00 in0.0 mm 0.00 in0.0 mm
08:30 AM 68.9°F20.5°C 66.0°F18.9°C 92% 1.0 mph S1.6 kmh S 3.0 mph4.8 kmh 29.96 in1014.6 mb 0.00 in0.0 mm 0.00 in0.0 mm 0.00 in0.0 mm
08:36 AM 68.9°F20.5°C 66.0°F18.9°C 92% Calm Calm 2.0 mph3.2 kmh 29.96 in1014.6 mb 0.00 in0.0 mm 0.00 in0.0 mm 0.00 in0.0 mm
08:40 AM 68.9°F20.5°C 66.0°F18.9°C 92% Calm Calm 1.0 mph1.6 kmh 29.96 in1014.6 mb 0.00 in0.0 mm 0.00 in0.0 mm 0.00 in0.0 mm
08:44 AM 68.9°F20.5°C 66.0°F18.9°C 92% Calm Calm -- 29.96 in1014.6 mb 0.00 in0.0 mm 0.00 in0.0 mm 0.00 in0.0 mm
08:46 AM 68.9°F20.5°C 67.0°F19.4°C 93% 1.0 mph SSE1.6 kmh SSE 2.0 mph3.2 kmh 29.96 in1014.6 mb 0.00 in0.0 mm 0.00 in0.0 mm 0.00 in0.0 mm
08:50 AM 68.9°F20.5°C 67.0°F19.4°C 93% Calm Calm 2.0 mph3.2 kmh 29.96 in1014.6 mb 0.00 in0.0 mm 0.00 in0.0 mm 0.00 in0.0 mm
08:52 AM 68.9°F20.5°C 67.0°F19.4°C 93% 1.0 mph ESE1.6 kmh ESE 2.0 mph3.2 kmh 29.96 in1014.6 mb 0.01 in0.3 mm 0.30 in7.6 mm 0.01 in0.3 mm
08:56 AM 68.9°F20.5°C 67.0°F19.4°C 93% Calm Calm 1.0 mph1.6 kmh 29.96 in1014.6 mb 0.01 in0.3 mm 0.00 in0.0 mm 0.01 in0.3 mm
08:58 AM 68.9°F20.5°C 67.0°F19.4°C 93% Calm Calm 2.0 mph3.2 kmh 29.98 in1015.2 mb 0.01 in0.3 mm 0.00 in0.0 mm 0.01 in0.3 mm
09:02 AM 68.9°F20.5°C 67.0°F19.4°C 93% Calm Calm -- 29.98 in1015.2 mb 0.01 in0.3 mm 0.00 in0.0 mm 0.01 in0.3 mm
09:08 AM 68.9°F20.5°C 67.0°F19.4°C 93% Calm Calm 1.0 mph1.6 kmh 29.98 in1015.2 mb 0.01 in0.3 mm 0.00 in0.0 mm 0.01 in0.3 mm
09:11 AM 68.9°F20.5°C 67.0°F19.4°C 93% Calm Calm 1.0 mph1.6 kmh 29.98 in1015.2 mb 0.01 in0.3 mm 0.00 in0.0 mm 0.01 in0.3 mm
09:14 AM 68.9°F20.5°C 67.0°F19.4°C 93% 3.0 mph SSE4.8 kmh SSE 4.0 mph6.4 kmh 29.98 in1015.2 mb 0.01 in0.3 mm 0.00 in0.0 mm 0.01 in0.3 mm
09:16 AM 68.9°F20.5°C 67.0°F19.4°C 93% 2.0 mph S3.2 kmh S 4.0 mph6.4 kmh 29.98 in1015.2 mb 0.01 in0.3 mm 0.00 in0.0 mm 0.01 in0.3 mm
09:20 AM 68.9°F20.5°C 67.0°F19.4°C 93% 1.0 mph SW1.6 kmh SW 2.0 mph3.2 kmh 29.98 in1015.2 mb 0.01 in0.3 mm 0.00 in0.0 mm 0.01 in0.3 mm
09:24 AM 68.9°F20.5°C 67.0°F19.4°C 93% Calm Calm 1.0 mph1.6 kmh 29.98 in1015.2 mb 0.01 in0.3 mm 0.00 in0.0 mm 0.01 in0.3 mm
09:28 AM 68.9°F20.5°C 67.0°F19.4°C 94% 1.0 mph ENE1.6 kmh ENE 1.0 mph1.6 kmh 29.98 in1015.2 mb 0.01 in0.3 mm 0.00 in0.0 mm 0.01 in0.3 mm
09:31 AM 68.9°F20.5°C 67.0°F19.4°C 94% 1.0 mph SSE1.6 kmh SSE 2.0 mph3.2 kmh 29.98 in1015.2 mb 0.01 in0.3 mm 0.00 in0.0 mm 0.01 in0.3 mm
09:34 AM 68.9°F20.5°C 67.0°F19.4°C 94% 2.0 mph SSE3.2 kmh SSE 2.0 mph3.2 kmh 29.98 in1015.2 mb 0.01 in0.3 mm 0.00 in0.0 mm 0.01 in0.3 mm
09:36 AM 68.9°F20.5°C 67.0°F19.4°C 94% 3.0 mph NNE4.8 kmh NNE 3.0 mph4.8 kmh 29.98 in1015.2 mb 0.01 in0.3 mm 0.00 in0.0 mm 0.01 in0.3 mm
09:41 AM 68.9°F20.5°C 67.0°F19.4°C 94% 1.0 mph SSE1.6 kmh SSE 3.0 mph4.8 kmh 29.98 in1015.2 mb 0.01 in0.3 mm 0.00 in0.0 mm 0.01 in0.3 mm
09:42 AM 68.9°F20.5°C 67.0°F19.4°C 94% Calm Calm 3.0 mph4.8 kmh 29.98 in1015.2 mb 0.01 in0.3 mm 0.00 in0.0 mm 0.01 in0.3 mm
09:44 AM 69.1°F20.6°C 67.0°F19.4°C 94% 1.0 mph W1.6 kmh W 2.0 mph3.2 kmh 29.98 in1015.2 mb 0.00 in0.0 mm 0.00 in0.0 mm 0.01 in0.3 mm
09:48 AM 69.1°F20.6°C 67.0°F19.4°C 94% 3.0 mph S4.8 kmh S 3.0 mph4.8 kmh 29.98 in1015.2 mb 0.00 in0.0 mm 0.00 in0.0 mm 0.01 in0.3 mm
09:50 AM 69.1°F20.6°C 67.0°F19.4°C 94% 1.0 mph SE1.6 kmh SE 3.0 mph4.8 kmh 29.98 in1015.2 mb 0.00 in0.0 mm 0.00 in0.0 mm 0.01 in0.3 mm
09:56 AM 69.1°F20.6°C 67.0°F19.4°C 94% 1.0 mph SE1.6 kmh SE 2.0 mph3.2 kmh 29.98 in1015.2 mb 0.00 in0.0 mm 0.00 in0.0 mm 0.01 in0.3 mm
09:58 AM 69.1°F20.6°C 67.0°F19.4°C 94% 1.0 mph SSE1.6 kmh SSE 2.0 mph3.2 kmh 29.99 in1015.6 mb 0.00 in0.0 mm 0.00 in0.0 mm 0.01 in0.3 mm
10:01 AM 69.1°F20.6°C 67.0°F19.4°C 94% Calm Calm 2.0 mph3.2 kmh 29.99 in1015.6 mb 0.00 in0.0 mm 0.00 in0.0 mm 0.01 in0.3 mm
10:02 AM 69.1°F20.6°C 67.0°F19.4°C 94% Calm Calm -- 29.99 in1015.6 mb 0.00 in0.0 mm 0.00 in0.0 mm 0.01 in0.3 mm
10:06 AM 69.3°F20.7°C 68.0°F20.0°C 94% Calm Calm 2.0 mph3.2 kmh 29.99 in1015.6 mb 0.00 in0.0 mm 0.00 in0.0 mm 0.01 in0.3 mm
10:12 AM 69.3°F20.7°C 68.0°F20.0°C 94% 2.0 mph SE3.2 kmh SE 2.0 mph3.2 kmh 29.99 in1015.6 mb 0.00 in0.0 mm 0.00 in0.0 mm 0.01 in0.3 mm
10:18 AM 69.3°F20.7°C 68.0°F20.0°C 94% 1.0 mph ESE1.6 kmh ESE 2.0 mph3.2 kmh 29.99 in1015.6 mb 0.00 in0.0 mm 0.00 in0.0 mm 0.01 in0.3 mm
10:20 AM 69.4°F20.8°C 68.0°F20.0°C 94% Calm Calm 2.0 mph3.2 kmh 29.99 in1015.6 mb 0.00 in0.0 mm 0.00 in0.0 mm 0.01 in0.3 mm
10:22 AM 69.4°F20.8°C 68.0°F20.0°C 94% Calm Calm 2.0 mph3.2 kmh 29.99 in1015.6 mb 0.00 in0.0 mm 0.00 in0.0 mm 0.01 in0.3 mm
10:26 AM 69.4°F20.8°C 68.0°F20.0°C 94% 1.0 mph SE1.6 kmh SE 2.0 mph3.2 kmh 29.99 in1015.6 mb 0.00 in0.0 mm 0.00 in0.0 mm 0.01 in0.3 mm
10:32 AM 69.6°F20.9°C 68.0°F20.0°C 94% Calm Calm -- 29.99 in1015.6 mb 0.00 in0.0 mm 0.00 in0.0 mm 0.01 in0.3 mm
10:34 AM 69.6°F20.9°C 68.0°F20.0°C 94% 3.0 mph ENE4.8 kmh ENE 4.0 mph6.4 kmh 29.99 in1015.6 mb 0.00 in0.0 mm 0.00 in0.0 mm 0.01 in0.3 mm
10:38 AM 69.6°F20.9°C 68.0°F20.0°C 94% 2.0 mph NE3.2 kmh NE 2.0 mph3.2 kmh 29.99 in1015.6 mb 0.00 in0.0 mm 0.00 in0.0 mm 0.01 in0.3 mm
10:42 AM 69.8°F21.0°C 68.0°F20.0°C 94% 1.0 mph ENE1.6 kmh ENE 4.0 mph6.4 kmh 29.99 in1015.6 mb 0.00 in0.0 mm 0.00 in0.0 mm 0.01 in0.3 mm
10:44 AM 69.8°F21.0°C 68.0°F20.0°C 94% Calm Calm 1.0 mph1.6 kmh 29.99 in1015.6 mb 0.00 in0.0 mm 0.00 in0.0 mm 0.01 in0.3 mm
10:51 AM 70.0°F21.1°C 68.0°F20.0°C 94% Calm Calm 2.0 mph3.2 kmh 29.99 in1015.6 mb 0.00 in0.0 mm 0.00 in0.0 mm 0.01 in0.3 mm
10:52 AM 70.0°F21.1°C 68.0°F20.0°C 94% Calm Calm -- 29.99 in1015.6 mb 0.00 in0.0 mm 0.00 in0.0 mm 0.01 in0.3 mm
10:54 AM 70.2°F21.2°C 68.0°F20.0°C 94% Calm Calm -- 29.99 in1015.6 mb 0.00 in0.0 mm 0.00 in0.0 mm 0.01 in0.3 mm
10:58 AM 70.3°F21.3°C 68.0°F20.0°C 94% Calm Calm 2.0 mph3.2 kmh 29.99 in1015.6 mb 0.00 in0.0 mm 0.00 in0.0 mm 0.01 in0.3 mm
11:02 AM 70.3°F21.3°C 68.0°F20.0°C 94% Calm Calm 1.0 mph1.6 kmh 29.99 in1015.6 mb 0.00 in0.0 mm 0.00 in0.0 mm 0.01 in0.3 mm
11:06 AM 70.3°F21.3°C 68.0°F20.0°C 94% 2.0 mph S3.2 kmh S 4.0 mph6.4 kmh 29.99 in1015.6 mb 0.00 in0.0 mm 0.00 in0.0 mm 0.01 in0.3 mm
11:08 AM 70.5°F21.4°C 69.0°F20.6°C 94% Calm Calm 1.0 mph1.6 kmh 29.99 in1015.6 mb 0.00 in0.0 mm 0.00 in0.0 mm 0.01 in0.3 mm
11:10 AM 70.5°F21.4°C 69.0°F20.6°C 94% 1.0 mph SSE1.6 kmh SSE 1.0 mph1.6 kmh 29.99 in1015.6 mb 0.00 in0.0 mm 0.00 in0.0 mm 0.01 in0.3 mm
11:14 AM 70.5°F21.4°C 69.0°F20.6°C 94% Calm Calm 3.0 mph4.8 kmh 29.99 in1015.6 mb 0.00 in0.0 mm 0.00 in0.0 mm 0.01 in0.3 mm
11:18 AM 70.5°F21.4°C 69.0°F20.6°C 94% 1.0 mph SE1.6 kmh SE 3.0 mph4.8 kmh 29.99 in1015.6 mb 0.00 in0.0 mm 0.00 in0.0 mm 0.01 in0.3 mm
11:22 AM 70.5°F21.4°C 69.0°F20.6°C 94% 3.0 mph NNE4.8 kmh NNE 3.0 mph4.8 kmh 29.99 in1015.6 mb 0.00 in0.0 mm 0.00 in0.0 mm 0.01 in0.3 mm
11:24 AM 70.5°F21.4°C 69.0°F20.6°C 94% 1.0 mph SSE1.6 kmh SSE 2.0 mph3.2 kmh 29.99 in1015.6 mb 0.00 in0.0 mm 0.00 in0.0 mm 0.01 in0.3 mm
11:28 AM 70.7°F21.5°C 69.0°F20.6°C 93% Calm Calm 1.0 mph1.6 kmh 29.99 in1015.6 mb 0.00 in0.0 mm 0.00 in0.0 mm 0.01 in0.3 mm
11:31 AM 70.7°F21.5°C 69.0°F20.6°C 93% 1.0 mph SSE1.6 kmh SSE 3.0 mph4.8 kmh 29.99 in1015.6 mb 0.00 in0.0 mm 0.00 in0.0 mm 0.01 in0.3 mm
11:32 AM 70.9°F21.6°C 69.0°F20.6°C 93% 1.0 mph ESE1.6 kmh ESE 3.0 mph4.8 kmh 29.99 in1015.6 mb 0.00 in0.0 mm 0.00 in0.0 mm 0.01 in0.3 mm
11:34 AM 70.9°F21.6°C 69.0°F20.6°C 93% Calm Calm 2.0 mph3.2 kmh 29.99 in1015.6 mb 0.00 in0.0 mm 0.00 in0.0 mm 0.01 in0.3 mm
11:38 AM 71.1°F21.7°C 69.0°F20.6°C 93% Calm Calm 1.0 mph1.6 kmh 29.99 in1015.6 mb 0.00 in0.0 mm 0.00 in0.0 mm 0.01 in0.3 mm
11:40 AM 71.1°F21.7°C 69.0°F20.6°C 93% 1.0 mph SSE1.6 kmh SSE 2.0 mph3.2 kmh 29.99 in1015.6 mb 0.00 in0.0 mm 0.00 in0.0 mm 0.01 in0.3 mm
11:44 AM 71.2°F21.8°C 69.0°F20.6°C 93% 1.0 mph ESE1.6 kmh ESE 2.0 mph3.2 kmh 29.99 in1015.6 mb 0.00 in0.0 mm 0.00 in0.0 mm 0.01 in0.3 mm
11:46 AM 71.2°F21.8°C 69.0°F20.6°C 93% 1.0 mph ENE1.6 kmh ENE 3.0 mph4.8 kmh 29.99 in1015.6 mb 0.00 in0.0 mm 0.00 in0.0 mm 0.01 in0.3 mm
11:52 AM 71.4°F21.9°C 69.0°F20.6°C 92% Calm Calm 3.0 mph4.8 kmh 29.99 in1015.6 mb 0.00 in0.0 mm 0.00 in0.0 mm 0.01 in0.3 mm
11:58 AM 71.6°F22.0°C 69.0°F20.6°C 92% 1.0 mph S1.6 kmh S 2.0 mph3.2 kmh 29.98 in1015.2 mb 0.00 in0.0 mm 0.00 in0.0 mm 0.01 in0.3 mm
12:02 PM 71.6°F22.0°C 69.0°F20.6°C 92% 1.0 mph SSE1.6 kmh SSE 3.0 mph4.8 kmh 29.98 in1015.2 mb 0.00 in0.0 mm 0.00 in0.0 mm 0.01 in0.3 mm
12:04 PM 71.8°F22.1°C 69.0°F20.6°C 92% Calm Calm 2.0 mph3.2 kmh 29.98 in1015.2 mb 0.00 in0.0 mm 0.00 in0.0 mm 0.01 in0.3 mm
12:06 PM 71.8°F22.1°C 69.0°F20.6°C 91% 1.0 mph S1.6 kmh S 2.0 mph3.2 kmh 29.98 in1015.2 mb 0.00 in0.0 mm 0.00 in0.0 mm 0.01 in0.3 mm
12:11 PM 72.0°F22.2°C 69.0°F20.6°C 91% Calm Calm 3.0 mph4.8 kmh 29.98 in1015.2 mb 0.00 in0.0 mm 0.00 in0.0 mm 0.01 in0.3 mm
12:14 PM 72.3°F22.4°C 70.0°F21.1°C 91% Calm Calm 1.0 mph1.6 kmh 29.98 in1015.2 mb 0.00 in0.0 mm 0.00 in0.0 mm 0.01 in0.3 mm
12:16 PM 72.3°F22.4°C 70.0°F21.1°C 91% Calm Calm 1.0 mph1.6 kmh 29.98 in1015.2 mb 0.00 in0.0 mm 0.00 in0.0 mm 0.01 in0.3 mm
12:22 PM 72.3°F22.4°C 70.0°F21.1°C 91% 2.0 mph SE3.2 kmh SE 3.0 mph4.8 kmh 29.98 in1015.2 mb 0.00 in0.0 mm 0.00 in0.0 mm 0.01 in0.3 mm
12:24 PM 72.3°F22.4°C 70.0°F21.1°C 91% 2.0 mph ESE3.2 kmh ESE 4.0 mph6.4 kmh 29.98 in1015.2 mb 0.00 in0.0 mm 0.00 in0.0 mm 0.01 in0.3 mm
12:26 PM 72.3°F22.4°C 70.0°F21.1°C 91% 3.0 mph S4.8 kmh S 4.0 mph6.4 kmh 29.98 in1015.2 mb 0.00 in0.0 mm 0.00 in0.0 mm 0.01 in0.3 mm
12:28 PM 72.5°F22.5°C 70.0°F21.1°C 91% 3.0 mph NE4.8 kmh NE 3.0 mph4.8 kmh 29.98 in1015.2 mb 0.00 in0.0 mm 0.00 in0.0 mm 0.01 in0.3 mm
12:32 PM 72.7°F22.6°C 70.0°F21.1°C 90% 3.0 mph SSE4.8 kmh SSE 3.0 mph4.8 kmh 29.98 in1015.2 mb 0.00 in0.0 mm 0.00 in0.0 mm 0.01 in0.3 mm
12:34 PM 72.7°F22.6°C 70.0°F21.1°C 90% 1.0 mph NE1.6 kmh NE 3.0 mph4.8 kmh 29.98 in1015.2 mb 0.00 in0.0 mm 0.00 in0.0 mm 0.01 in0.3 mm
12:38 PM 72.7°F22.6°C 70.0°F21.1°C 90% Calm Calm -- 29.98 in1015.2 mb 0.00 in0.0 mm 0.00 in0.0 mm 0.01 in0.3 mm
12:42 PM 72.7°F22.6°C 70.0°F21.1°C 90% Calm Calm 3.0 mph4.8 kmh 29.98 in1015.2 mb 0.00 in0.0 mm 0.00 in0.0 mm 0.01 in0.3 mm
12:44 PM 72.7°F22.6°C 70.0°F21.1°C 90% 2.0 mph SSW3.2 kmh SSW 2.0 mph3.2 kmh 29.98 in1015.2 mb 0.00 in0.0 mm 0.00 in0.0 mm 0.01 in0.3 mm
12:48 PM 72.9°F22.7°C 70.0°F21.1°C 90% 2.0 mph SSE3.2 kmh SSE 2.0 mph3.2 kmh 29.98 in1015.2 mb 0.00 in0.0 mm 0.00 in0.0 mm 0.01 in0.3 mm
12:52 PM 72.9°F22.7°C 70.0°F21.1°C 89% 1.0 mph ESE1.6 kmh ESE 4.0 mph6.4 kmh 29.98 in1015.2 mb 0.00 in0.0 mm 0.00 in0.0 mm 0.01 in0.3 mm
12:54 PM 72.9°F22.7°C 70.0°F21.1°C 89% 3.0 mph NNE4.8 kmh NNE 5.0 mph8.0 kmh 29.98 in1015.2 mb 0.00 in0.0 mm 0.00 in0.0 mm 0.01 in0.3 mm
01:01 PM 72.9°F22.7°C 70.0°F21.1°C 89% 1.0 mph SE1.6 kmh SE 3.0 mph4.8 kmh 29.97 in1014.9 mb 0.00 in0.0 mm 0.00 in0.0 mm 0.01 in0.3 mm
01:02 PM 73.0°F22.8°C 70.0°F21.1°C 89% 1.0 mph SE1.6 kmh SE 3.0 mph4.8 kmh 29.97 in1014.9 mb 0.00 in0.0 mm 0.00 in0.0 mm 0.01 in0.3 mm
01:06 PM 73.0°F22.8°C 70.0°F21.1°C 89% 2.0 mph WNW3.2 kmh WNW 4.0 mph6.4 kmh 29.97 in1014.9 mb 0.00 in0.0 mm 0.00 in0.0 mm 0.01 in0.3 mm
01:08 PM 73.0°F22.8°C 70.0°F21.1°C 89% 3.0 mph S4.8 kmh S 3.0 mph4.8 kmh 29.97 in1014.9 mb 0.00 in0.0 mm 0.00 in0.0 mm 0.01 in0.3 mm
01:14 PM 73.0°F22.8°C 70.0°F21.1°C 89% 1.0 mph SW1.6 kmh SW 4.0 mph6.4 kmh 29.97 in1014.9 mb 0.00 in0.0 mm 0.00 in0.0 mm 0.01 in0.3 mm
01:16 PM 73.0°F22.8°C 70.0°F21.1°C 89% 2.0 mph ENE3.2 kmh ENE 4.0 mph6.4 kmh 29.97 in1014.9 mb 0.00 in0.0 mm 0.00 in0.0 mm 0.01 in0.3 mm
01:18 PM 73.0°F22.8°C 70.0°F21.1°C 89% 2.0 mph SSW3.2 kmh SSW 2.0 mph3.2 kmh 29.97 in1014.9 mb 0.00 in0.0 mm 0.00 in0.0 mm 0.01 in0.3 mm
01:22 PM 73.0°F22.8°C 70.0°F21.1°C 89% Calm Calm 2.0 mph3.2 kmh 29.97 in1014.9 mb 0.00 in0.0 mm 0.00 in0.0 mm 0.01 in0.3 mm
01:24 PM 73.2°F22.9°C 70.0°F21.1°C 89% 2.0 mph ESE3.2 kmh ESE 2.0 mph3.2 kmh 29.97 in1014.9 mb 0.00 in0.0 mm 0.00 in0.0 mm 0.01 in0.3 mm
01:26 PM 73.2°F22.9°C 70.0°F21.1°C 89% 2.0 mph SSE3.2 kmh SSE 3.0 mph4.8 kmh 29.97 in1014.9 mb 0.00 in0.0 mm 0.00 in0.0 mm 0.01 in0.3 mm
01:32 PM 73.6°F23.1°C 70.0°F21.1°C 89% 2.0 mph SSE3.2 kmh SSE 2.0 mph3.2 kmh 29.97 in1014.9 mb 0.00 in0.0 mm 0.00 in0.0 mm 0.01 in0.3 mm
01:34 PM 73.6°F23.1°C 70.0°F21.1°C 89% Calm Calm 2.0 mph3.2 kmh 29.97 in1014.9 mb 0.00 in0.0 mm 0.00 in0.0 mm 0.01 in0.3 mm
01:41 PM 73.9°F23.3°C 70.0°F21.1°C 89% 1.0 mph SSE1.6 kmh SSE 2.0 mph3.2 kmh 29.97 in1014.9 mb 0.00 in0.0 mm 0.00 in0.0 mm 0.01 in0.3 mm
01:44 PM 74.1°F23.4°C 70.0°F21.1°C 88% Calm Calm -- 29.97 in1014.9 mb 0.00 in0.0 mm 0.00 in0.0 mm 0.01 in0.3 mm
01:51 PM 74.5°F23.6°C 70.0°F21.1°C 87% Calm Calm 1.0 mph1.6 kmh 29.98 in1015.2 mb 0.00 in0.0 mm 0.00 in0.0 mm 0.01 in0.3 mm
01:52 PM 74.5°F23.6°C 70.0°F21.1°C 87% Calm Calm 1.0 mph1.6 kmh 29.98 in1015.2 mb 0.00 in0.0 mm 0.00 in0.0 mm 0.01 in0.3 mm
01:54 PM 74.5°F23.6°C 70.0°F21.1°C 87% Calm Calm -- 29.98 in1015.2 mb 0.00 in0.0 mm 0.00 in0.0 mm 0.01 in0.3 mm
02:01 PM 74.5°F23.6°C 70.0°F21.1°C 87% 2.0 mph ESE3.2 kmh ESE 5.0 mph8.0 kmh 29.96 in1014.6 mb 0.00 in0.0 mm 0.00 in0.0 mm 0.01 in0.3 mm
02:02 PM 74.5°F23.6°C 70.0°F21.1°C 87% 1.0 mph S1.6 kmh S 5.0 mph8.0 kmh 29.96 in1014.6 mb 0.00 in0.0 mm 0.00 in0.0 mm 0.01 in0.3 mm
02:06 PM 74.5°F23.6°C 70.0°F21.1°C 87% 2.0 mph S3.2 kmh S 2.0 mph3.2 kmh 29.96 in1014.6 mb 0.00 in0.0 mm 0.00 in0.0 mm 0.01 in0.3 mm
02:08 PM 74.8°F23.8°C 71.0°F21.7°C 87% 1.0 mph SSE1.6 kmh SSE 2.0 mph3.2 kmh 29.96 in1014.6 mb 0.00 in0.0 mm 0.00 in0.0 mm 0.01 in0.3 mm
02:10 PM 75.4°F24.1°C 71.0°F21.7°C 87% 1.0 mph SSE1.6 kmh SSE 2.0 mph3.2 kmh 29.96 in1014.6 mb 0.00 in0.0 mm 0.00 in0.0 mm 0.01 in0.3 mm
02:12 PM 75.7°F24.3°C 71.0°F21.7°C 86% 2.0 mph SSW3.2 kmh SSW 5.0 mph8.0 kmh 29.96 in1014.6 mb 0.00 in0.0 mm 0.00 in0.0 mm 0.01 in0.3 mm
02:18 PM 76.6°F24.8°C 71.0°F21.7°C 84% 2.0 mph S3.2 kmh S 3.0 mph4.8 kmh 29.96 in1014.6 mb 0.00 in0.0 mm 0.00 in0.0 mm 0.01 in0.3 mm
02:21 PM 76.6°F24.8°C 71.0°F21.7°C 83% 1.0 mph ESE1.6 kmh ESE 3.0 mph4.8 kmh 29.96 in1014.6 mb 0.00 in0.0 mm 0.00 in0.0 mm 0.01 in0.3 mm
02:24 PM 77.0°F25.0°C 71.0°F21.7°C 83% 2.0 mph ESE3.2 kmh ESE 2.0 mph3.2 kmh 29.96 in1014.6 mb 0.00 in0.0 mm 0.00 in0.0 mm 0.01 in0.3 mm
02:26 PM 77.0°F25.0°C 71.0°F21.7°C 83% Calm Calm 4.0 mph6.4 kmh 29.96 in1014.6 mb 0.00 in0.0 mm 0.00 in0.0 mm 0.01 in0.3 mm
02:28 PM 77.0°F25.0°C 71.0°F21.7°C 83% 2.0 mph NE3.2 kmh NE 2.0 mph3.2 kmh 29.96 in1014.6 mb 0.00 in0.0 mm 0.00 in0.0 mm 0.01 in0.3 mm
02:32 PM 77.0°F25.0°C 71.0°F21.7°C 83% 2.0 mph ESE3.2 kmh ESE 3.0 mph4.8 kmh 29.96 in1014.6 mb 0.00 in0.0 mm 0.00 in0.0 mm 0.01 in0.3 mm
02:34 PM 77.0°F25.0°C 71.0°F21.7°C 83% Calm Calm 3.0 mph4.8 kmh 29.96 in1014.6 mb 0.00 in0.0 mm 0.00 in0.0 mm 0.01 in0.3 mm
02:36 PM 77.0°F25.0°C 71.0°F21.7°C 83% Calm Calm 3.0 mph4.8 kmh 29.96 in1014.6 mb 0.00 in0.0 mm 0.00 in0.0 mm 0.01 in0.3 mm
02:42 PM 77.2°F25.1°C 72.0°F22.2°C 83% Calm Calm 6.0 mph9.7 kmh 29.96 in1014.6 mb 0.00 in0.0 mm 0.00 in0.0 mm 0.01 in0.3 mm
02:48 PM 77.2°F25.1°C 72.0°F22.2°C 83% Calm Calm 2.0 mph3.2 kmh 29.96 in1014.6 mb 0.00 in0.0 mm 0.00 in0.0 mm 0.01 in0.3 mm
02:51 PM 77.4°F25.2°C 72.0°F22.2°C 83% Calm Calm 3.0 mph4.8 kmh 29.96 in1014.6 mb 0.00 in0.0 mm 0.00 in0.0 mm 0.01 in0.3 mm
02:54 PM 77.7°F25.4°C 72.0°F22.2°C 82% 3.0 mph NE4.8 kmh NE 3.0 mph4.8 kmh 29.96 in1014.6 mb 0.00 in0.0 mm 0.00 in0.0 mm 0.01 in0.3 mm
02:58 PM 78.3°F25.7°C 72.0°F22.2°C 81% 2.0 mph S3.2 kmh S 3.0 mph4.8 kmh 29.95 in1014.2 mb 0.00 in0.0 mm 0.00 in0.0 mm 0.01 in0.3 mm
03:02 PM 78.1°F25.6°C 72.0°F22.2°C 81% 1.0 mph S1.6 kmh S 3.0 mph4.8 kmh 29.95 in1014.2 mb 0.00 in0.0 mm 0.00 in0.0 mm 0.01 in0.3 mm
03:04 PM 77.9°F25.5°C 72.0°F22.2°C 81% 1.0 mph SSW1.6 kmh SSW 2.0 mph3.2 kmh 29.95 in1014.2 mb 0.00 in0.0 mm 0.00 in0.0 mm 0.01 in0.3 mm
03:11 PM 77.4°F25.2°C 72.0°F22.2°C 82% 2.0 mph SSE3.2 kmh SSE 2.0 mph3.2 kmh 29.95 in1014.2 mb 0.00 in0.0 mm 0.00 in0.0 mm 0.01 in0.3 mm
03:12 PM 77.5°F25.3°C 72.0°F22.2°C 82% Calm Calm -- 29.95 in1014.2 mb 0.00 in0.0 mm 0.00 in0.0 mm 0.01 in0.3 mm
03:14 PM 77.7°F25.4°C 72.0°F22.2°C 82% 1.0 mph SE1.6 kmh SE 3.0 mph4.8 kmh 29.95 in1014.2 mb 0.00 in0.0 mm 0.00 in0.0 mm 0.01 in0.3 mm
03:21 PM 77.2°F25.1°C 71.0°F21.7°C 82% 3.0 mph SSE4.8 kmh SSE 5.0 mph8.0 kmh 29.95 in1014.2 mb 0.00 in0.0 mm 0.00 in0.0 mm 0.01 in0.3 mm
03:22 PM 77.0°F25.0°C 71.0°F21.7°C 82% 2.0 mph E3.2 kmh E 6.0 mph9.7 kmh 29.95 in1014.2 mb 0.00 in0.0 mm 0.00 in0.0 mm 0.01 in0.3 mm
03:24 PM 76.8°F24.9°C 71.0°F21.7°C 83% 2.0 mph NNE3.2 kmh NNE 5.0 mph8.0 kmh 29.95 in1014.2 mb 0.00 in0.0 mm 0.00 in0.0 mm 0.01 in0.3 mm
03:26 PM 76.6°F24.8°C 71.0°F21.7°C 83% 1.0 mph SSE1.6 kmh SSE 5.0 mph8.0 kmh 29.95 in1014.2 mb 0.00 in0.0 mm 0.00 in0.0 mm 0.01 in0.3 mm
03:31 PM 76.6°F24.8°C 71.0°F21.7°C 83% 1.0 mph S1.6 kmh S 3.0 mph4.8 kmh 29.95 in1014.2 mb 0.00 in0.0 mm 0.00 in0.0 mm 0.01 in0.3 mm
03:32 PM 76.6°F24.8°C 71.0°F21.7°C 83% 2.0 mph NE3.2 kmh NE 3.0 mph4.8 kmh 29.95 in1014.2 mb 0.00 in0.0 mm 0.00 in0.0 mm 0.01 in0.3 mm
03:34 PM 77.0°F25.0°C 71.0°F21.7°C 83% 2.0 mph NNE3.2 kmh NNE 3.0 mph4.8 kmh 29.95 in1014.2 mb 0.00 in0.0 mm 0.00 in0.0 mm 0.01 in0.3 mm
03:38 PM 77.0°F25.0°C 71.0°F21.7°C 83% 2.0 mph SE3.2 kmh SE 4.0 mph6.4 kmh 29.95 in1014.2 mb 0.00 in0.0 mm 0.00 in0.0 mm 0.01 in0.3 mm
03:41 PM 77.2°F25.1°C 72.0°F22.2°C 83% 1.0 mph ESE1.6 kmh ESE 4.0 mph6.4 kmh 29.95 in1014.2 mb 0.00 in0.0 mm 0.00 in0.0 mm 0.01 in0.3 mm
03:42 PM 77.2°F25.1°C 72.0°F22.2°C 83% 1.0 mph ESE1.6 kmh ESE 1.0 mph1.6 kmh 29.95 in1014.2 mb 0.00 in0.0 mm 0.00 in0.0 mm 0.01 in0.3 mm
03:46 PM 77.4°F25.2°C 72.0°F22.2°C 82% 1.0 mph ENE1.6 kmh ENE 4.0 mph6.4 kmh 29.95 in1014.2 mb 0.00 in0.0 mm 0.00 in0.0 mm 0.01 in0.3 mm
03:51 PM 77.5°F25.3°C 72.0°F22.2°C 82% 3.0 mph SSE4.8 kmh SSE 4.0 mph6.4 kmh 29.95 in1014.2 mb 0.00 in0.0 mm 0.00 in0.0 mm 0.01 in0.3 mm
03:52 PM 77.7°F25.4°C 72.0°F22.2°C 82% 2.0 mph ESE3.2 kmh ESE 2.0 mph3.2 kmh 29.95 in1014.2 mb 0.00 in0.0 mm 0.00 in0.0 mm 0.01 in0.3 mm
03:56 PM 78.1°F25.6°C 72.0°F22.2°C 82% 2.0 mph SSW3.2 kmh SSW 5.0 mph8.0 kmh 29.95 in1014.2 mb 0.00 in0.0 mm 0.00 in0.0 mm 0.01 in0.3 mm
03:58 PM 78.1°F25.6°C 72.0°F22.2°C 81% 1.0 mph SSW1.6 kmh SSW 3.0 mph4.8 kmh 29.94 in1013.9 mb 0.00 in0.0 mm 0.00 in0.0 mm 0.01 in0.3 mm
04:05 PM 78.1°F25.6°C 72.0°F22.2°C 81% 3.0 mph SE4.8 kmh SE 4.0 mph6.4 kmh 29.94 in1013.9 mb 0.00 in0.0 mm 0.00 in0.0 mm 0.01 in0.3 mm
04:11 PM 78.4°F25.8°C 72.0°F22.2°C 81% 2.0 mph ESE3.2 kmh ESE 6.0 mph9.7 kmh 29.94 in1013.9 mb 0.00 in0.0 mm 0.00 in0.0 mm 0.01 in0.3 mm
04:12 PM 78.4°F25.8°C 72.0°F22.2°C 81% 1.0 mph NE1.6 kmh NE 1.0 mph1.6 kmh 29.94 in1013.9 mb 0.00 in0.0 mm 0.00 in0.0 mm 0.01 in0.3 mm
04:16 PM 78.3°F25.7°C 72.0°F22.2°C 81% 2.0 mph SSE3.2 kmh SSE 4.0 mph6.4 kmh 29.94 in1013.9 mb 0.00 in0.0 mm 0.00 in0.0 mm 0.01 in0.3 mm
04:22 PM 78.4°F25.8°C 72.0°F22.2°C 81% 1.0 mph S1.6 kmh S 1.0 mph1.6 kmh 29.94 in1013.9 mb 0.00 in0.0 mm 0.00 in0.0 mm 0.01 in0.3 mm
04:26 PM 78.4°F25.8°C 72.0°F22.2°C 81% 2.0 mph 3.2 kmh 3.0 mph4.8 kmh 29.94 in1013.9 mb 0.00 in0.0 mm 0.00 in0.0 mm 0.01 in0.3 mm
04:28 PM 78.4°F25.8°C 72.0°F22.2°C 81% 3.0 mph SSW4.8 kmh SSW 4.0 mph6.4 kmh 29.94 in1013.9 mb 0.00 in0.0 mm 0.00 in0.0 mm 0.01 in0.3 mm
04:32 PM 78.4°F25.8°C 72.0°F22.2°C 81% 1.0 mph S1.6 kmh S 1.0 mph1.6 kmh 29.94 in1013.9 mb 0.00 in0.0 mm 0.00 in0.0 mm 0.01 in0.3 mm
04:34 PM 78.4°F25.8°C 72.0°F22.2°C 81% 1.0 mph NE1.6 kmh NE 4.0 mph6.4 kmh 29.94 in1013.9 mb 0.00 in0.0 mm 0.00 in0.0 mm 0.01 in0.3 mm
04:38 PM 78.4°F25.8°C 72.0°F22.2°C 81% 2.0 mph S3.2 kmh S 2.0 mph3.2 kmh 29.94 in1013.9 mb 0.00 in0.0 mm 0.00 in0.0 mm 0.01 in0.3 mm
04:40 PM 78.4°F25.8°C 72.0°F22.2°C 81% 3.0 mph ESE4.8 kmh ESE 3.0 mph4.8 kmh 29.94 in1013.9 mb 0.00 in0.0 mm 0.00 in0.0 mm 0.01 in0.3 mm
04:44 PM 78.3°F25.7°C 72.0°F22.2°C 81% 1.0 mph SSW1.6 kmh SSW 3.0 mph4.8 kmh 29.94 in1013.9 mb 0.00 in0.0 mm 0.00 in0.0 mm 0.01 in0.3 mm
04:50 PM 77.9°F25.5°C 72.0°F22.2°C 81% 3.0 mph S4.8 kmh S 5.0 mph8.0 kmh 29.94 in1013.9 mb 0.00 in0.0 mm 0.00 in0.0 mm 0.01 in0.3 mm
04:56 PM 78.8°F26.0°C 72.0°F22.2°C 81% 2.0 mph SSE3.2 kmh SSE 3.0 mph4.8 kmh 29.94 in1013.9 mb 0.00 in0.0 mm 0.00 in0.0 mm 0.01 in0.3 mm
04:58 PM 78.8°F26.0°C 72.0°F22.2°C 81% 3.0 mph SE4.8 kmh SE 3.0 mph4.8 kmh 29.92 in1013.2 mb 0.00 in0.0 mm 0.00 in0.0 mm 0.01 in0.3 mm
05:02 PM 78.6°F25.9°C 72.0°F22.2°C 81% 1.0 mph ESE1.6 kmh ESE 1.0 mph1.6 kmh 29.92 in1013.2 mb 0.00 in0.0 mm 0.00 in0.0 mm 0.01 in0.3 mm
05:04 PM 78.6°F25.9°C 72.0°F22.2°C 81% 3.0 mph NE4.8 kmh NE 7.0 mph11.3 kmh 29.92 in1013.2 mb 0.00 in0.0 mm 0.00 in0.0 mm 0.01 in0.3 mm
05:06 PM 78.6°F25.9°C 72.0°F22.2°C 81% Calm Calm 7.0 mph11.3 kmh 29.92 in1013.2 mb 0.00 in0.0 mm 0.00 in0.0 mm 0.01 in0.3 mm
05:08 PM 78.6°F25.9°C 72.0°F22.2°C 81% 3.0 mph SE4.8 kmh SE 3.0 mph4.8 kmh 29.92 in1013.2 mb 0.00 in0.0 mm 0.00 in0.0 mm 0.01 in0.3 mm
05:12 PM 78.1°F25.6°C 72.0°F22.2°C 81% 3.0 mph NNW4.8 kmh NNW 3.0 mph4.8 kmh 29.92 in1013.2 mb 0.00 in0.0 mm 0.00 in0.0 mm 0.01 in0.3 mm
05:16 PM 78.3°F25.7°C 72.0°F22.2°C 81% 4.0 mph ENE6.4 kmh ENE 4.0 mph6.4 kmh 29.92 in1013.2 mb 0.00 in0.0 mm 0.00 in0.0 mm 0.01 in0.3 mm
05:18 PM 78.1°F25.6°C 72.0°F22.2°C 81% 2.0 mph SSW3.2 kmh SSW 4.0 mph6.4 kmh 29.92 in1013.2 mb 0.00 in0.0 mm 0.00 in0.0 mm 0.01 in0.3 mm
05:24 PM 77.9°F25.5°C 72.0°F22.2°C 81% Calm Calm 4.0 mph6.4 kmh 29.92 in1013.2 mb 0.00 in0.0 mm 0.00 in0.0 mm 0.01 in0.3 mm
05:30 PM 77.9°F25.5°C 72.0°F22.2°C 81% Calm Calm 5.0 mph8.0 kmh 29.92 in1013.2 mb 0.00 in0.0 mm 0.00 in0.0 mm 0.01 in0.3 mm
05:32 PM 77.9°F25.5°C 72.0°F22.2°C 81% 4.0 mph NE6.4 kmh NE 4.0 mph6.4 kmh 29.92 in1013.2 mb 0.00 in0.0 mm 0.00 in0.0 mm 0.01 in0.3 mm
05:34 PM 77.7°F25.4°C 71.0°F21.7°C 81% 3.0 mph NNE4.8 kmh NNE 6.0 mph9.7 kmh 29.92 in1013.2 mb 0.00 in0.0 mm 0.00 in0.0 mm 0.01 in0.3 mm
05:40 PM 77.4°F25.2°C 71.0°F21.7°C 81% 2.0 mph SSW3.2 kmh SSW 4.0 mph6.4 kmh 29.92 in1013.2 mb 0.00 in0.0 mm 0.00 in0.0 mm 0.01 in0.3 mm
05:44 PM 77.2°F25.1°C 71.0°F21.7°C 81% 3.0 mph NE4.8 kmh NE 6.0 mph9.7 kmh 29.92 in1013.2 mb 0.00 in0.0 mm 0.00 in0.0 mm 0.01 in0.3 mm
05:48 PM 77.0°F25.0°C 71.0°F21.7°C 82% 3.0 mph SSE4.8 kmh SSE 4.0 mph6.4 kmh 29.92 in1013.2 mb 0.00 in0.0 mm 0.00 in0.0 mm 0.01 in0.3 mm
05:54 PM 76.5°F24.7°C 71.0°F21.7°C 82% 6.0 mph NE9.7 kmh NE 6.0 mph9.7 kmh 29.92 in1013.2 mb 0.00 in0.0 mm 0.00 in0.0 mm 0.01 in0.3 mm
05:56 PM 76.3°F24.6°C 71.0°F21.7°C 83% 2.0 mph SSE3.2 kmh SSE 4.0 mph6.4 kmh 29.92 in1013.2 mb 0.00 in0.0 mm 0.00 in0.0 mm 0.01 in0.3 mm
06:01 PM 76.3°F24.6°C 71.0°F21.7°C 83% 1.0 mph NNE1.6 kmh NNE 1.0 mph1.6 kmh 29.93 in1013.5 mb 0.00 in0.0 mm 0.00 in0.0 mm 0.01 in0.3 mm
06:02 PM 76.3°F24.6°C 71.0°F21.7°C 83% 2.0 mph SSE3.2 kmh SSE 2.0 mph3.2 kmh 29.93 in1013.5 mb 0.00 in0.0 mm 0.00 in0.0 mm 0.01 in0.3 mm
06:08 PM 75.6°F24.2°C 71.0°F21.7°C 85% 2.0 mph ENE3.2 kmh ENE 3.0 mph4.8 kmh 29.93 in1013.5 mb 0.00 in0.0 mm 0.00 in0.0 mm 0.01 in0.3 mm
06:14 PM 75.0°F23.9°C 70.0°F21.1°C 86% 2.0 mph 3.2 kmh 6.0 mph9.7 kmh 29.93 in1013.5 mb 0.00 in0.0 mm 0.00 in0.0 mm 0.01 in0.3 mm
06:16 PM 75.0°F23.9°C 70.0°F21.1°C 86% 3.0 mph SW4.8 kmh SW 3.0 mph4.8 kmh 29.93 in1013.5 mb 0.00 in0.0 mm 0.00 in0.0 mm 0.01 in0.3 mm
06:20 PM 74.8°F23.8°C 70.0°F21.1°C 86% 2.0 mph SE3.2 kmh SE 5.0 mph8.0 kmh 29.93 in1013.5 mb 0.00 in0.0 mm 0.00 in0.0 mm 0.01 in0.3 mm
06:22 PM 74.8°F23.8°C 70.0°F21.1°C 86% 2.0 mph SSE3.2 kmh SSE 2.0 mph3.2 kmh 29.93 in1013.5 mb 0.00 in0.0 mm 0.00 in0.0 mm 0.01 in0.3 mm
06:26 PM 74.8°F23.8°C 70.0°F21.1°C 86% 1.0 mph SE1.6 kmh SE 3.0 mph4.8 kmh 29.93 in1013.5 mb 0.00 in0.0 mm 0.00 in0.0 mm 0.01 in0.3 mm
06:32 PM 74.8°F23.8°C 70.0°F21.1°C 86% 3.0 mph 4.8 kmh 3.0 mph4.8 kmh 29.93 in1013.5 mb 0.00 in0.0 mm 0.00 in0.0 mm 0.01 in0.3 mm
06:34 PM 74.8°F23.8°C 70.0°F21.1°C 86% 4.0 mph SSE6.4 kmh SSE 5.0 mph8.0 kmh 29.93 in1013.5 mb 0.00 in0.0 mm 0.00 in0.0 mm 0.01 in0.3 mm
06:38 PM 74.8°F23.8°C 70.0°F21.1°C 86% 1.0 mph SSE1.6 kmh SSE 3.0 mph4.8 kmh 29.93 in1013.5 mb 0.00 in0.0 mm 0.00 in0.0 mm 0.01 in0.3 mm
06:44 PM 74.8°F23.8°C 70.0°F21.1°C 86% 2.0 mph 3.2 kmh 5.0 mph8.0 kmh 29.93 in1013.5 mb 0.00 in0.0 mm 0.00 in0.0 mm 0.01 in0.3 mm
06:46 PM 74.8°F23.8°C 70.0°F21.1°C 86% 5.0 mph SSE8.0 kmh SSE 5.0 mph8.0 kmh 29.93 in1013.5 mb 0.00 in0.0 mm 0.00 in0.0 mm 0.01 in0.3 mm
06:48 PM 74.8°F23.8°C 70.0°F21.1°C 86% 2.0 mph ESE3.2 kmh ESE 5.0 mph8.0 kmh 29.93 in1013.5 mb 0.00 in0.0 mm 0.00 in0.0 mm 0.01 in0.3 mm
06:50 PM 74.8°F23.8°C 70.0°F21.1°C 86% 1.0 mph SSE1.6 kmh SSE 5.0 mph8.0 kmh 29.93 in1013.5 mb 0.00 in0.0 mm 0.00 in0.0 mm 0.01 in0.3 mm
07:01 PM 75.0°F23.9°C 70.0°F21.1°C 85% 2.0 mph NNE3.2 kmh NNE 3.0 mph4.8 kmh 29.93 in1013.5 mb 0.00 in0.0 mm 0.00 in0.0 mm 0.01 in0.3 mm
07:04 PM 75.0°F23.9°C 70.0°F21.1°C 85% 1.0 mph W1.6 kmh W 8.0 mph12.9 kmh 29.92 in1013.2 mb 0.00 in0.0 mm 0.00 in0.0 mm 0.01 in0.3 mm
07:05 PM 75.0°F23.9°C 70.0°F21.1°C 85% 1.0 mph ENE1.6 kmh ENE 8.0 mph12.9 kmh 29.92 in1013.2 mb 0.00 in0.0 mm 0.00 in0.0 mm 0.01 in0.3 mm
07:10 PM 75.0°F23.9°C 70.0°F21.1°C 85% 3.0 mph SE4.8 kmh SE 6.0 mph9.7 kmh 29.92 in1013.2 mb 0.00 in0.0 mm 0.00 in0.0 mm 0.01 in0.3 mm
07:12 PM 75.0°F23.9°C 70.0°F21.1°C 85% 3.0 mph SSE4.8 kmh SSE 9.0 mph14.5 kmh 29.92 in1013.2 mb 0.00 in0.0 mm 0.00 in0.0 mm 0.01 in0.3 mm
07:14 PM 75.0°F23.9°C 70.0°F21.1°C 85% 3.0 mph NE4.8 kmh NE 9.0 mph14.5 kmh 29.92 in1013.2 mb 0.00 in0.0 mm 0.00 in0.0 mm 0.01 in0.3 mm
07:18 PM 75.0°F23.9°C 70.0°F21.1°C 85% 2.0 mph SSE3.2 kmh SSE 5.0 mph8.0 kmh 29.92 in1013.2 mb 0.00 in0.0 mm 0.00 in0.0 mm 0.01 in0.3 mm
07:20 PM 75.0°F23.9°C 70.0°F21.1°C 85% 5.0 mph SE8.0 kmh SE 6.0 mph9.7 kmh 29.92 in1013.2 mb 0.00 in0.0 mm 0.00 in0.0 mm 0.01 in0.3 mm
07:24 PM 74.8°F23.8°C 70.0°F21.1°C 85% 4.0 mph SSE6.4 kmh SSE 5.0 mph8.0 kmh 29.92 in1013.2 mb 0.00 in0.0 mm 0.00 in0.0 mm 0.01 in0.3 mm
07:31 PM 74.7°F23.7°C 70.0°F21.1°C 85% 1.0 mph W1.6 kmh W 2.0 mph3.2 kmh 29.92 in1013.2 mb 0.00 in0.0 mm 0.00 in0.0 mm 0.01 in0.3 mm
07:34 PM 74.7°F23.7°C 70.0°F21.1°C 85% 1.0 mph S1.6 kmh S 5.0 mph8.0 kmh 29.92 in1013.2 mb 0.00 in0.0 mm 0.00 in0.0 mm 0.01 in0.3 mm
07:36 PM 74.7°F23.7°C 70.0°F21.1°C 85% Calm Calm 2.0 mph3.2 kmh 29.92 in1013.2 mb 0.00 in0.0 mm 0.00 in0.0 mm 0.01 in0.3 mm
07:40 PM 74.5°F23.6°C 70.0°F21.1°C 85% 1.0 mph SSE1.6 kmh SSE 1.0 mph1.6 kmh 29.92 in1013.2 mb 0.00 in0.0 mm 0.00 in0.0 mm 0.01 in0.3 mm
07:44 PM 74.5°F23.6°C 70.0°F21.1°C 85% 3.0 mph E4.8 kmh E 3.0 mph4.8 kmh 29.94 in1013.9 mb 0.00 in0.0 mm 0.00 in0.0 mm 0.01 in0.3 mm
07:46 PM 74.5°F23.6°C 70.0°F21.1°C 85% 4.0 mph SSE6.4 kmh SSE 4.0 mph6.4 kmh 29.94 in1013.9 mb 0.00 in0.0 mm 0.00 in0.0 mm 0.01 in0.3 mm
07:48 PM 74.5°F23.6°C 70.0°F21.1°C 85% 2.0 mph S3.2 kmh S 4.0 mph6.4 kmh 29.94 in1013.9 mb 0.00 in0.0 mm 0.00 in0.0 mm 0.01 in0.3 mm
07:54 PM 74.3°F23.5°C 70.0°F21.1°C 85% 3.0 mph S4.8 kmh S 4.0 mph6.4 kmh 29.94 in1013.9 mb 0.00 in0.0 mm 0.00 in0.0 mm 0.01 in0.3 mm
07:56 PM 74.3°F23.5°C 70.0°F21.1°C 85% 2.0 mph NW3.2 kmh NW 4.0 mph6.4 kmh 29.94 in1013.9 mb 0.00 in0.0 mm 0.00 in0.0 mm 0.01 in0.3 mm
08:01 PM 74.3°F23.5°C 70.0°F21.1°C 85% 4.0 mph SSE6.4 kmh SSE 4.0 mph6.4 kmh 29.92 in1013.2 mb 0.00 in0.0 mm 0.00 in0.0 mm 0.01 in0.3 mm
08:06 PM 74.1°F23.4°C 69.0°F20.6°C 85% 2.0 mph S3.2 kmh S 3.0 mph4.8 kmh 29.92 in1013.2 mb 0.00 in0.0 mm 0.00 in0.0 mm 0.01 in0.3 mm
08:08 PM 74.1°F23.4°C 69.0°F20.6°C 85% 3.0 mph NNE4.8 kmh NNE 4.0 mph6.4 kmh 29.92 in1013.2 mb 0.00 in0.0 mm 0.00 in0.0 mm 0.01 in0.3 mm
08:11 PM 74.1°F23.4°C 69.0°F20.6°C 85% 1.0 mph SSE1.6 kmh SSE 1.0 mph1.6 kmh 29.92 in1013.2 mb 0.00 in0.0 mm 0.00 in0.0 mm 0.01 in0.3 mm
08:12 PM 74.1°F23.4°C 69.0°F20.6°C 85% 5.0 mph SSW8.0 kmh SSW 5.0 mph8.0 kmh 29.92 in1013.2 mb 0.00 in0.0 mm 0.00 in0.0 mm 0.01 in0.3 mm
08:16 PM 73.9°F23.3°C 69.0°F20.6°C 86% 2.0 mph 3.2 kmh 2.0 mph3.2 kmh 29.92 in1013.2 mb 0.00 in0.0 mm 0.00 in0.0 mm 0.01 in0.3 mm
08:20 PM 73.9°F23.3°C 69.0°F20.6°C 86% 3.0 mph SSE4.8 kmh SSE 5.0 mph8.0 kmh 29.92 in1013.2 mb 0.00 in0.0 mm 0.00 in0.0 mm 0.01 in0.3 mm
08:22 PM 73.9°F23.3°C 69.0°F20.6°C 86% 2.0 mph NNE3.2 kmh NNE 6.0 mph9.7 kmh 29.92 in1013.2 mb 0.00 in0.0 mm 0.00 in0.0 mm 0.01 in0.3 mm
08:26 PM 73.9°F23.3°C 69.0°F20.6°C 86% 2.0 mph S3.2 kmh S 2.0 mph3.2 kmh 29.92 in1013.2 mb 0.00 in0.0 mm 0.00 in0.0 mm 0.01 in0.3 mm
08:28 PM 73.9°F23.3°C 69.0°F20.6°C 86% Calm Calm 3.0 mph4.8 kmh 29.92 in1013.2 mb 0.00 in0.0 mm 0.00 in0.0 mm 0.01 in0.3 mm
08:32 PM 73.9°F23.3°C 69.0°F20.6°C 86% 2.0 mph NNE3.2 kmh NNE 7.0 mph11.3 kmh 29.92 in1013.2 mb 0.00 in0.0 mm 0.00 in0.0 mm 0.01 in0.3 mm
08:34 PM 73.9°F23.3°C 69.0°F20.6°C 86% 1.0 mph 1.6 kmh 7.0 mph11.3 kmh 29.92 in1013.2 mb 0.00 in0.0 mm 0.00 in0.0 mm 0.01 in0.3 mm
08:38 PM 73.9°F23.3°C 69.0°F20.6°C 86% 2.0 mph WSW3.2 kmh WSW 6.0 mph9.7 kmh 29.92 in1013.2 mb 0.00 in0.0 mm 0.00 in0.0 mm 0.01 in0.3 mm
08:42 PM 73.9°F23.3°C 69.0°F20.6°C 86% 4.0 mph ENE6.4 kmh ENE 4.0 mph6.4 kmh 29.92 in1013.2 mb 0.00 in0.0 mm 0.00 in0.0 mm 0.01 in0.3 mm
08:46 PM 73.9°F23.3°C 69.0°F20.6°C 86% 1.0 mph SE1.6 kmh SE 5.0 mph8.0 kmh 29.92 in1013.2 mb 0.00 in0.0 mm 0.00 in0.0 mm 0.01 in0.3 mm
08:48 PM 73.9°F23.3°C 69.0°F20.6°C 86% 3.0 mph S4.8 kmh S 5.0 mph8.0 kmh 29.92 in1013.2 mb 0.00 in0.0 mm 0.00 in0.0 mm 0.01 in0.3 mm
08:54 PM 73.9°F23.3°C 69.0°F20.6°C 86% 3.0 mph SSE4.8 kmh SSE 3.0 mph4.8 kmh 29.92 in1013.2 mb 0.00 in0.0 mm 0.00 in0.0 mm 0.01 in0.3 mm
08:56 PM 73.9°F23.3°C 69.0°F20.6°C 86% 2.0 mph W3.2 kmh W 2.0 mph3.2 kmh 29.92 in1013.2 mb 0.00 in0.0 mm 0.00 in0.0 mm 0.01 in0.3 mm
09:02 PM 73.9°F23.3°C 69.0°F20.6°C 86% 3.0 mph WSW4.8 kmh WSW 3.0 mph4.8 kmh 29.95 in1014.2 mb 0.00 in0.0 mm 0.00 in0.0 mm 0.01 in0.3 mm
09:04 PM 73.9°F23.3°C 69.0°F20.6°C 86% 1.0 mph SSE1.6 kmh SSE 3.0 mph4.8 kmh 29.95 in1014.2 mb 0.00 in0.0 mm 0.00 in0.0 mm 0.01 in0.3 mm
09:06 PM 73.9°F23.3°C 69.0°F20.6°C 86% 1.0 mph NE1.6 kmh NE 3.0 mph4.8 kmh 29.95 in1014.2 mb 0.00 in0.0 mm 0.00 in0.0 mm 0.01 in0.3 mm
09:08 PM 73.9°F23.3°C 69.0°F20.6°C 86% 1.0 mph NNE1.6 kmh NNE 5.0 mph8.0 kmh 29.95 in1014.2 mb 0.00 in0.0 mm 0.00 in0.0 mm 0.01 in0.3 mm
09:14 PM 73.9°F23.3°C 69.0°F20.6°C 86% Calm Calm 3.0 mph4.8 kmh 29.95 in1014.2 mb 0.00 in0.0 mm 0.00 in0.0 mm 0.01 in0.3 mm
09:16 PM 73.9°F23.3°C 69.0°F20.6°C 86% Calm Calm -- 29.95 in1014.2 mb 0.00 in0.0 mm 0.00 in0.0 mm 0.01 in0.3 mm
09:22 PM 73.9°F23.3°C 69.0°F20.6°C 86% 3.0 mph W4.8 kmh W 3.0 mph4.8 kmh 29.95 in1014.2 mb 0.00 in0.0 mm 0.00 in0.0 mm 0.01 in0.3 mm
09:24 PM 73.9°F23.3°C 69.0°F20.6°C 86% 1.0 mph SSE1.6 kmh SSE 3.0 mph4.8 kmh 29.95 in1014.2 mb 0.00 in0.0 mm 0.00 in0.0 mm 0.01 in0.3 mm
09:28 PM 73.9°F23.3°C 69.0°F20.6°C 86% 2.0 mph SSE3.2 kmh SSE 3.0 mph4.8 kmh 29.95 in1014.2 mb 0.00 in0.0 mm 0.00 in0.0 mm 0.01 in0.3 mm
09:31 PM 73.9°F23.3°C 69.0°F20.6°C 86% 2.0 mph SE3.2 kmh SE 2.0 mph3.2 kmh 29.95 in1014.2 mb 0.00 in0.0 mm 0.00 in0.0 mm 0.01 in0.3 mm
09:34 PM 73.9°F23.3°C 69.0°F20.6°C 86% 2.0 mph S3.2 kmh S 6.0 mph9.7 kmh 29.95 in1014.2 mb 0.00 in0.0 mm 0.00 in0.0 mm 0.01 in0.3 mm
09:38 PM 73.9°F23.3°C 69.0°F20.6°C 86% 2.0 mph NNE3.2 kmh NNE 3.0 mph4.8 kmh 29.95 in1014.2 mb 0.00 in0.0 mm 0.00 in0.0 mm 0.01 in0.3 mm
09:40 PM 73.9°F23.3°C 69.0°F20.6°C 86% 4.0 mph SSE6.4 kmh SSE 4.0 mph6.4 kmh 29.95 in1014.2 mb 0.00 in0.0 mm 0.00 in0.0 mm 0.01 in0.3 mm
09:42 PM 73.8°F23.2°C 69.0°F20.6°C 86% 1.0 mph W1.6 kmh W 4.0 mph6.4 kmh 29.95 in1014.2 mb 0.00 in0.0 mm 0.00 in0.0 mm 0.01 in0.3 mm
09:46 PM 73.8°F23.2°C 69.0°F20.6°C 86% 4.0 mph NNE6.4 kmh NNE 4.0 mph6.4 kmh 29.95 in1014.2 mb 0.00 in0.0 mm 0.00 in0.0 mm 0.01 in0.3 mm
09:48 PM 73.8°F23.2°C 69.0°F20.6°C 86% 2.0 mph SSE3.2 kmh SSE 4.0 mph6.4 kmh 29.95 in1014.2 mb 0.00 in0.0 mm 0.00 in0.0 mm 0.01 in0.3 mm
09:52 PM 73.8°F23.2°C 69.0°F20.6°C 86% 2.0 mph NNW3.2 kmh NNW 2.0 mph3.2 kmh 29.95 in1014.2 mb 0.00 in0.0 mm 0.00 in0.0 mm 0.01 in0.3 mm
09:54 PM 73.8°F23.2°C 69.0°F20.6°C 86% 1.0 mph S1.6 kmh S 4.0 mph6.4 kmh 29.95 in1014.2 mb 0.00 in0.0 mm 0.00 in0.0 mm 0.01 in0.3 mm
09:56 PM 73.8°F23.2°C 69.0°F20.6°C 86% 1.0 mph E1.6 kmh E 4.0 mph6.4 kmh 29.95 in1014.2 mb 0.00 in0.0 mm 0.00 in0.0 mm 0.01 in0.3 mm
10:02 PM 73.8°F23.2°C 69.0°F20.6°C 86% 3.0 mph WSW4.8 kmh WSW 3.0 mph4.8 kmh 29.97 in1014.9 mb 0.00 in0.0 mm 0.00 in0.0 mm 0.01 in0.3 mm
10:04 PM 73.8°F23.2°C 69.0°F20.6°C 86% 1.0 mph ESE1.6 kmh ESE 3.0 mph4.8 kmh 29.97 in1014.9 mb 0.00 in0.0 mm 0.00 in0.0 mm 0.01 in0.3 mm
10:10 PM 73.8°F23.2°C 69.0°F20.6°C 86% 2.0 mph SSE3.2 kmh SSE 5.0 mph8.0 kmh 29.97 in1014.9 mb 0.00 in0.0 mm 0.00 in0.0 mm 0.01 in0.3 mm
10:12 PM 73.8°F23.2°C 69.0°F20.6°C 86% 2.0 mph S3.2 kmh S 3.0 mph4.8 kmh 29.97 in1014.9 mb 0.00 in0.0 mm 0.00 in0.0 mm 0.01 in0.3 mm
10:16 PM 73.8°F23.2°C 69.0°F20.6°C 86% 2.0 mph SE3.2 kmh SE 2.0 mph3.2 kmh 29.97 in1014.9 mb 0.00 in0.0 mm 0.00 in0.0 mm 0.01 in0.3 mm
10:18 PM 73.8°F23.2°C 69.0°F20.6°C 86% 1.0 mph E1.6 kmh E 5.0 mph8.0 kmh 29.97 in1014.9 mb 0.00 in0.0 mm 0.00 in0.0 mm 0.01 in0.3 mm
10:22 PM 73.8°F23.2°C 69.0°F20.6°C 86% 2.0 mph 3.2 kmh 5.0 mph8.0 kmh 29.97 in1014.9 mb 0.00 in0.0 mm 0.00 in0.0 mm 0.01 in0.3 mm
10:24 PM 73.6°F23.1°C 69.0°F20.6°C 86% 3.0 mph SSW4.8 kmh SSW 5.0 mph8.0 kmh 29.97 in1014.9 mb 0.00 in0.0 mm 0.00 in0.0 mm 0.01 in0.3 mm
10:31 PM 73.6°F23.1°C 69.0°F20.6°C 86% 1.0 mph SE1.6 kmh SE 1.0 mph1.6 kmh 29.97 in1014.9 mb 0.00 in0.0 mm 0.00 in0.0 mm 0.01 in0.3 mm
10:32 PM 73.6°F23.1°C 69.0°F20.6°C 86% 1.0 mph ESE1.6 kmh ESE 3.0 mph4.8 kmh 29.97 in1014.9 mb 0.00 in0.0 mm 0.00 in0.0 mm 0.01 in0.3 mm
10:36 PM 73.6°F23.1°C 69.0°F20.6°C 86% 2.0 mph ESE3.2 kmh ESE 4.0 mph6.4 kmh 29.97 in1014.9 mb 0.00 in0.0 mm 0.00 in0.0 mm 0.01 in0.3 mm
10:38 PM 73.6°F23.1°C 69.0°F20.6°C 86% 4.0 mph ESE6.4 kmh ESE 5.0 mph8.0 kmh 29.97 in1014.9 mb 0.00 in0.0 mm 0.00 in0.0 mm 0.01 in0.3 mm
10:42 PM 73.6°F23.1°C 69.0°F20.6°C 86% 3.0 mph NE4.8 kmh NE 3.0 mph4.8 kmh 29.97 in1014.9 mb 0.00 in0.0 mm 0.00 in0.0 mm 0.01 in0.3 mm
10:44 PM 73.6°F23.1°C 69.0°F20.6°C 86% 1.0 mph SSW1.6 kmh SSW 9.0 mph14.5 kmh 29.97 in1014.9 mb 0.00 in0.0 mm 0.00 in0.0 mm 0.01 in0.3 mm
10:46 PM 73.6°F23.1°C 69.0°F20.6°C 86% 3.0 mph ESE4.8 kmh ESE 5.0 mph8.0 kmh 29.97 in1014.9 mb 0.00 in0.0 mm 0.00 in0.0 mm 0.01 in0.3 mm
10:52 PM 73.4°F23.0°C 69.0°F20.6°C 87% 4.0 mph NE6.4 kmh NE 4.0 mph6.4 kmh 29.97 in1014.9 mb 0.00 in0.0 mm 0.00 in0.0 mm 0.01 in0.3 mm
10:54 PM 73.4°F23.0°C 69.0°F20.6°C 87% 1.0 mph SE1.6 kmh SE 5.0 mph8.0 kmh 29.97 in1014.9 mb 0.00 in0.0 mm 0.00 in0.0 mm 0.01 in0.3 mm
10:56 PM 73.4°F23.0°C 69.0°F20.6°C 87% 2.0 mph ESE3.2 kmh ESE 3.0 mph4.8 kmh 29.97 in1014.9 mb 0.00 in0.0 mm 0.00 in0.0 mm 0.01 in0.3 mm
11:02 PM 73.4°F23.0°C 69.0°F20.6°C 87% 5.0 mph SSW8.0 kmh SSW 5.0 mph8.0 kmh 29.97 in1014.9 mb 0.00 in0.0 mm 0.00 in0.0 mm 0.01 in0.3 mm
11:06 PM 73.4°F23.0°C 69.0°F20.6°C 87% 3.0 mph ENE4.8 kmh ENE 4.0 mph6.4 kmh 29.97 in1014.9 mb 0.00 in0.0 mm 0.00 in0.0 mm 0.01 in0.3 mm
11:08 PM 73.4°F23.0°C 69.0°F20.6°C 87% 3.0 mph SSE4.8 kmh SSE 6.0 mph9.7 kmh 29.97 in1014.9 mb 0.00 in0.0 mm 0.00 in0.0 mm 0.01 in0.3 mm
11:12 PM 73.4°F23.0°C 69.0°F20.6°C 87% 2.0 mph SSE3.2 kmh SSE 7.0 mph11.3 kmh 29.97 in1014.9 mb 0.00 in0.0 mm 0.00 in0.0 mm 0.01 in0.3 mm
11:14 PM 73.4°F23.0°C 69.0°F20.6°C 87% 1.0 mph SSE1.6 kmh SSE 7.0 mph11.3 kmh 29.97 in1014.9 mb 0.00 in0.0 mm 0.00 in0.0 mm 0.01 in0.3 mm
11:18 PM 73.4°F23.0°C 69.0°F20.6°C 87% 2.0 mph SW3.2 kmh SW 5.0 mph8.0 kmh 29.97 in1014.9 mb 0.00 in0.0 mm 0.00 in0.0 mm 0.01 in0.3 mm
11:20 PM 73.4°F23.0°C 69.0°F20.6°C 87% Calm Calm 5.0 mph8.0 kmh 29.97 in1014.9 mb 0.00 in0.0 mm 0.00 in0.0 mm 0.01 in0.3 mm
11:26 PM 73.4°F23.0°C 69.0°F20.6°C 87% 4.0 mph SSW6.4 kmh SSW 4.0 mph6.4 kmh 29.97 in1014.9 mb 0.00 in0.0 mm 0.00 in0.0 mm 0.01 in0.3 mm
11:28 PM 73.4°F23.0°C 69.0°F20.6°C 87% 4.0 mph SE6.4 kmh SE 4.0 mph6.4 kmh 29.97 in1014.9 mb 0.00 in0.0 mm 0.00 in0.0 mm 0.01 in0.3 mm
11:32 PM 73.4°F23.0°C 69.0°F20.6°C 87% 3.0 mph NNE4.8 kmh NNE 4.0 mph6.4 kmh 29.97 in1014.9 mb 0.00 in0.0 mm 0.00 in0.0 mm 0.01 in0.3 mm
11:36 PM 73.4°F23.0°C 69.0°F20.6°C 87% 7.0 mph SE11.3 kmh SE 7.0 mph11.3 kmh 29.97 in1014.9 mb 0.00 in0.0 mm 0.00 in0.0 mm 0.01 in0.3 mm
11:40 PM 73.4°F23.0°C 69.0°F20.6°C 87% 2.0 mph W3.2 kmh W 7.0 mph11.3 kmh 29.97 in1014.9 mb 0.00 in0.0 mm 0.00 in0.0 mm 0.01 in0.3 mm
11:42 PM 73.4°F23.0°C 69.0°F20.6°C 87% 3.0 mph SSW4.8 kmh SSW 3.0 mph4.8 kmh 29.97 in1014.9 mb 0.00 in0.0 mm 0.00 in0.0 mm 0.01 in0.3 mm
11:46 PM 73.4°F23.0°C 69.0°F20.6°C 87% 4.0 mph E6.4 kmh E 4.0 mph6.4 kmh 29.97 in1014.9 mb 0.00 in0.0 mm 0.00 in0.0 mm 0.01 in0.3 mm
11:50 PM 73.4°F23.0°C 69.0°F20.6°C 87% 5.0 mph NW8.0 kmh NW 5.0 mph8.0 kmh 29.97 in1014.9 mb 0.00 in0.0 mm 0.00 in0.0 mm 0.01 in0.3 mm
11:52 PM 73.4°F23.0°C 69.0°F20.6°C 87% 2.0 mph SSE3.2 kmh SSE 3.0 mph4.8 kmh 29.97 in1014.9 mb 0.00 in0.0 mm 0.00 in0.0 mm 0.01 in0.3 mm
11:56 PM 73.4°F23.0°C 69.0°F20.6°C 87% 4.0 mph SW6.4 kmh SW 4.0 mph6.4 kmh 29.97 in1014.9 mb 0.00 in0.0 mm 0.00 in0.0 mm 0.01 in0.3 mm
11:58 PM 73.4°F23.0°C 69.0°F20.6°C 87% 3.0 mph SSW4.8 kmh SSW 4.0 mph6.4 kmh 30.00 in1015.9 mb 0.00 in0.0 mm 0.00 in0.0 mm 0.01 in0.3 mm